<?xml version="1.0" encoding="UTF-8" standalone="no" ?>
<gpx xmlns="http://www.topografix.com/GPX/1/1" xmlns:xsi="http://www.w3.org/2001/XMLSchema-instance" xsi:schemaLocation="http://www.topografix.com/GPX/1/1 http://www.topografix.com/GPX/1/1/gpx.xsd" version="1.1" creator="VisuGPX - https://www.visugpx.com">
  <metadata>
    <name>Ascain st pé</name>
    <desc><![CDATA[boucle plutot roulante sur ascan]]></desc>
  </metadata>
  <trk>
    <name><![CDATA[20-SEP-14 07:57:08]]></name>
    <trkseg>
      <trkpt lat="43.35583" lon="-1.60938">
        <ele>45.8</ele>
        <time>2014-09-20T05:32:46Z</time>
      </trkpt>
      <trkpt lat="43.35583" lon="-1.60938">
        <ele>43.88</ele>
        <time>2014-09-20T05:32:47Z</time>
      </trkpt>
      <trkpt lat="43.35583" lon="-1.60937">
        <ele>41.95</ele>
        <time>2014-09-20T05:32:52Z</time>
      </trkpt>
      <trkpt lat="43.35582" lon="-1.60935">
        <ele>41.95</ele>
        <time>2014-09-20T05:33:22Z</time>
      </trkpt>
      <trkpt lat="43.35582" lon="-1.60934">
        <ele>41.47</ele>
        <time>2014-09-20T05:33:42Z</time>
      </trkpt>
      <trkpt lat="43.35575" lon="-1.60938">
        <ele>40.51</ele>
        <time>2014-09-20T05:33:48Z</time>
      </trkpt>
      <trkpt lat="43.35569" lon="-1.60934">
        <ele>40.51</ele>
        <time>2014-09-20T05:33:51Z</time>
      </trkpt>
      <trkpt lat="43.35563" lon="-1.60933">
        <ele>40.03</ele>
        <time>2014-09-20T05:33:54Z</time>
      </trkpt>
      <trkpt lat="43.3556" lon="-1.6093">
        <ele>40.51</ele>
        <time>2014-09-20T05:33:57Z</time>
      </trkpt>
      <trkpt lat="43.35549" lon="-1.60916">
        <ele>41.95</ele>
        <time>2014-09-20T05:34:04Z</time>
      </trkpt>
      <trkpt lat="43.35527" lon="-1.60887">
        <ele>40.51</ele>
        <time>2014-09-20T05:34:17Z</time>
      </trkpt>
      <trkpt lat="43.35526" lon="-1.60885">
        <ele>40.51</ele>
        <time>2014-09-20T05:34:18Z</time>
      </trkpt>
      <trkpt lat="43.35503" lon="-1.60863">
        <ele>39.07</ele>
        <time>2014-09-20T05:34:30Z</time>
      </trkpt>
      <trkpt lat="43.35494" lon="-1.60856">
        <ele>39.07</ele>
        <time>2014-09-20T05:34:35Z</time>
      </trkpt>
      <trkpt lat="43.3548" lon="-1.60848">
        <ele>36.19</ele>
        <time>2014-09-20T05:34:43Z</time>
      </trkpt>
      <trkpt lat="43.35478" lon="-1.6083">
        <ele>34.74</ele>
        <time>2014-09-20T05:34:50Z</time>
      </trkpt>
      <trkpt lat="43.35478" lon="-1.60826">
        <ele>34.26</ele>
        <time>2014-09-20T05:34:52Z</time>
      </trkpt>
      <trkpt lat="43.35475" lon="-1.60803">
        <ele>33.3</ele>
        <time>2014-09-20T05:35:06Z</time>
      </trkpt>
      <trkpt lat="43.35474" lon="-1.60799">
        <ele>33.3</ele>
        <time>2014-09-20T05:35:22Z</time>
      </trkpt>
      <trkpt lat="43.35475" lon="-1.60798">
        <ele>32.82</ele>
        <time>2014-09-20T05:35:52Z</time>
      </trkpt>
      <trkpt lat="43.35473" lon="-1.60792">
        <ele>32.34</ele>
        <time>2014-09-20T05:36:02Z</time>
      </trkpt>
      <trkpt lat="43.3547" lon="-1.60785">
        <ele>31.38</ele>
        <time>2014-09-20T05:36:12Z</time>
      </trkpt>
      <trkpt lat="43.35469" lon="-1.60778">
        <ele>30.9</ele>
        <time>2014-09-20T05:36:23Z</time>
      </trkpt>
      <trkpt lat="43.35467" lon="-1.60766">
        <ele>29.46</ele>
        <time>2014-09-20T05:36:34Z</time>
      </trkpt>
      <trkpt lat="43.35468" lon="-1.60763">
        <ele>28.98</ele>
        <time>2014-09-20T05:36:38Z</time>
      </trkpt>
      <trkpt lat="43.35458" lon="-1.60757">
        <ele>29.94</ele>
        <time>2014-09-20T05:36:49Z</time>
      </trkpt>
      <trkpt lat="43.35454" lon="-1.60758">
        <ele>30.9</ele>
        <time>2014-09-20T05:36:58Z</time>
      </trkpt>
      <trkpt lat="43.3545" lon="-1.60759">
        <ele>30.9</ele>
        <time>2014-09-20T05:37:02Z</time>
      </trkpt>
      <trkpt lat="43.35434" lon="-1.60765">
        <ele>30.9</ele>
        <time>2014-09-20T05:37:14Z</time>
      </trkpt>
      <trkpt lat="43.35432" lon="-1.60766">
        <ele>30.42</ele>
        <time>2014-09-20T05:37:16Z</time>
      </trkpt>
      <trkpt lat="43.35421" lon="-1.60763">
        <ele>31.86</ele>
        <time>2014-09-20T05:37:22Z</time>
      </trkpt>
      <trkpt lat="43.35404" lon="-1.6075">
        <ele>33.78</ele>
        <time>2014-09-20T05:37:32Z</time>
      </trkpt>
      <trkpt lat="43.35399" lon="-1.60746">
        <ele>35.23</ele>
        <time>2014-09-20T05:37:40Z</time>
      </trkpt>
      <trkpt lat="43.35396" lon="-1.60745">
        <ele>35.71</ele>
        <time>2014-09-20T05:37:44Z</time>
      </trkpt>
      <trkpt lat="43.35387" lon="-1.60742">
        <ele>36.67</ele>
        <time>2014-09-20T05:37:56Z</time>
      </trkpt>
      <trkpt lat="43.35387" lon="-1.6074">
        <ele>36.19</ele>
        <time>2014-09-20T05:38:18Z</time>
      </trkpt>
      <trkpt lat="43.35387" lon="-1.6074">
        <ele>36.19</ele>
        <time>2014-09-20T05:38:45Z</time>
      </trkpt>
      <trkpt lat="43.35386" lon="-1.60741">
        <ele>36.19</ele>
        <time>2014-09-20T05:39:06Z</time>
      </trkpt>
      <trkpt lat="43.35374" lon="-1.60743">
        <ele>36.67</ele>
        <time>2014-09-20T05:39:13Z</time>
      </trkpt>
      <trkpt lat="43.35368" lon="-1.60744">
        <ele>37.15</ele>
        <time>2014-09-20T05:39:16Z</time>
      </trkpt>
      <trkpt lat="43.35356" lon="-1.60743">
        <ele>38.11</ele>
        <time>2014-09-20T05:39:22Z</time>
      </trkpt>
      <trkpt lat="43.35352" lon="-1.60742">
        <ele>38.11</ele>
        <time>2014-09-20T05:39:24Z</time>
      </trkpt>
      <trkpt lat="43.35331" lon="-1.60727">
        <ele>36.67</ele>
        <time>2014-09-20T05:39:35Z</time>
      </trkpt>
      <trkpt lat="43.35323" lon="-1.60715">
        <ele>37.15</ele>
        <time>2014-09-20T05:39:44Z</time>
      </trkpt>
      <trkpt lat="43.3532" lon="-1.60713">
        <ele>37.15</ele>
        <time>2014-09-20T05:39:58Z</time>
      </trkpt>
      <trkpt lat="43.35318" lon="-1.60705">
        <ele>38.11</ele>
        <time>2014-09-20T05:40:07Z</time>
      </trkpt>
      <trkpt lat="43.35316" lon="-1.607">
        <ele>38.59</ele>
        <time>2014-09-20T05:40:19Z</time>
      </trkpt>
      <trkpt lat="43.35312" lon="-1.60695">
        <ele>38.59</ele>
        <time>2014-09-20T05:40:31Z</time>
      </trkpt>
      <trkpt lat="43.35311" lon="-1.60694">
        <ele>38.59</ele>
        <time>2014-09-20T05:40:42Z</time>
      </trkpt>
      <trkpt lat="43.35307" lon="-1.60684">
        <ele>39.07</ele>
        <time>2014-09-20T05:40:49Z</time>
      </trkpt>
      <trkpt lat="43.35298" lon="-1.60666">
        <ele>40.03</ele>
        <time>2014-09-20T05:40:58Z</time>
      </trkpt>
      <trkpt lat="43.35282" lon="-1.60641">
        <ele>41.47</ele>
        <time>2014-09-20T05:41:11Z</time>
      </trkpt>
      <trkpt lat="43.35279" lon="-1.60639">
        <ele>41.47</ele>
        <time>2014-09-20T05:41:13Z</time>
      </trkpt>
      <trkpt lat="43.3527" lon="-1.60633">
        <ele>41.95</ele>
        <time>2014-09-20T05:41:19Z</time>
      </trkpt>
      <trkpt lat="43.35247" lon="-1.6062">
        <ele>42.44</ele>
        <time>2014-09-20T05:41:31Z</time>
      </trkpt>
      <trkpt lat="43.35233" lon="-1.60601">
        <ele>41.95</ele>
        <time>2014-09-20T05:41:43Z</time>
      </trkpt>
      <trkpt lat="43.35232" lon="-1.606">
        <ele>41.95</ele>
        <time>2014-09-20T05:41:49Z</time>
      </trkpt>
      <trkpt lat="43.35225" lon="-1.60593">
        <ele>41.95</ele>
        <time>2014-09-20T05:41:59Z</time>
      </trkpt>
      <trkpt lat="43.35222" lon="-1.60584">
        <ele>42.92</ele>
        <time>2014-09-20T05:42:09Z</time>
      </trkpt>
      <trkpt lat="43.35215" lon="-1.60573">
        <ele>43.88</ele>
        <time>2014-09-20T05:42:21Z</time>
      </trkpt>
      <trkpt lat="43.35209" lon="-1.60565">
        <ele>44.84</ele>
        <time>2014-09-20T05:42:33Z</time>
      </trkpt>
      <trkpt lat="43.35209" lon="-1.60565">
        <ele>44.84</ele>
        <time>2014-09-20T05:42:34Z</time>
      </trkpt>
      <trkpt lat="43.35204" lon="-1.60544">
        <ele>45.32</ele>
        <time>2014-09-20T05:42:43Z</time>
      </trkpt>
      <trkpt lat="43.35202" lon="-1.60538">
        <ele>45.8</ele>
        <time>2014-09-20T05:42:46Z</time>
      </trkpt>
      <trkpt lat="43.35187" lon="-1.60511">
        <ele>47.24</ele>
        <time>2014-09-20T05:42:59Z</time>
      </trkpt>
      <trkpt lat="43.35174" lon="-1.60486">
        <ele>47.72</ele>
        <time>2014-09-20T05:43:10Z</time>
      </trkpt>
      <trkpt lat="43.35168" lon="-1.60476">
        <ele>48.2</ele>
        <time>2014-09-20T05:43:16Z</time>
      </trkpt>
      <trkpt lat="43.35161" lon="-1.60469">
        <ele>48.68</ele>
        <time>2014-09-20T05:43:22Z</time>
      </trkpt>
      <trkpt lat="43.3515" lon="-1.60448">
        <ele>49.16</ele>
        <time>2014-09-20T05:43:32Z</time>
      </trkpt>
      <trkpt lat="43.35135" lon="-1.60431">
        <ele>51.57</ele>
        <time>2014-09-20T05:43:43Z</time>
      </trkpt>
      <trkpt lat="43.3513" lon="-1.60426">
        <ele>52.53</ele>
        <time>2014-09-20T05:43:47Z</time>
      </trkpt>
      <trkpt lat="43.35111" lon="-1.60403">
        <ele>52.05</ele>
        <time>2014-09-20T05:44:01Z</time>
      </trkpt>
      <trkpt lat="43.3511" lon="-1.60401">
        <ele>52.53</ele>
        <time>2014-09-20T05:44:02Z</time>
      </trkpt>
      <trkpt lat="43.351" lon="-1.60383">
        <ele>52.05</ele>
        <time>2014-09-20T05:44:12Z</time>
      </trkpt>
      <trkpt lat="43.35092" lon="-1.60353">
        <ele>53.01</ele>
        <time>2014-09-20T05:44:24Z</time>
      </trkpt>
      <trkpt lat="43.35085" lon="-1.60336">
        <ele>53.97</ele>
        <time>2014-09-20T05:44:33Z</time>
      </trkpt>
      <trkpt lat="43.35081" lon="-1.60327">
        <ele>54.93</ele>
        <time>2014-09-20T05:44:43Z</time>
      </trkpt>
      <trkpt lat="43.3508" lon="-1.60325">
        <ele>54.93</ele>
        <time>2014-09-20T05:44:45Z</time>
      </trkpt>
      <trkpt lat="43.35076" lon="-1.60316">
        <ele>56.37</ele>
        <time>2014-09-20T05:44:53Z</time>
      </trkpt>
      <trkpt lat="43.35075" lon="-1.60306">
        <ele>56.86</ele>
        <time>2014-09-20T05:45:03Z</time>
      </trkpt>
      <trkpt lat="43.35072" lon="-1.60293">
        <ele>55.41</ele>
        <time>2014-09-20T05:45:07Z</time>
      </trkpt>
      <trkpt lat="43.35068" lon="-1.60276">
        <ele>55.41</ele>
        <time>2014-09-20T05:45:12Z</time>
      </trkpt>
      <trkpt lat="43.35074" lon="-1.60247">
        <ele>55.41</ele>
        <time>2014-09-20T05:45:21Z</time>
      </trkpt>
      <trkpt lat="43.3508" lon="-1.60232">
        <ele>54.93</ele>
        <time>2014-09-20T05:45:26Z</time>
      </trkpt>
      <trkpt lat="43.35094" lon="-1.60217">
        <ele>55.41</ele>
        <time>2014-09-20T05:45:36Z</time>
      </trkpt>
      <trkpt lat="43.35099" lon="-1.6021">
        <ele>55.41</ele>
        <time>2014-09-20T05:45:45Z</time>
      </trkpt>
      <trkpt lat="43.35107" lon="-1.60199">
        <ele>56.37</ele>
        <time>2014-09-20T05:45:58Z</time>
      </trkpt>
      <trkpt lat="43.35107" lon="-1.60199">
        <ele>56.37</ele>
        <time>2014-09-20T05:46:02Z</time>
      </trkpt>
      <trkpt lat="43.35112" lon="-1.6019">
        <ele>56.86</ele>
        <time>2014-09-20T05:46:06Z</time>
      </trkpt>
      <trkpt lat="43.35129" lon="-1.60148">
        <ele>57.34</ele>
        <time>2014-09-20T05:46:22Z</time>
      </trkpt>
      <trkpt lat="43.35132" lon="-1.60139">
        <ele>57.34</ele>
        <time>2014-09-20T05:46:25Z</time>
      </trkpt>
      <trkpt lat="43.35131" lon="-1.6013">
        <ele>57.82</ele>
        <time>2014-09-20T05:46:29Z</time>
      </trkpt>
      <trkpt lat="43.35129" lon="-1.60119">
        <ele>57.82</ele>
        <time>2014-09-20T05:46:39Z</time>
      </trkpt>
      <trkpt lat="43.35131" lon="-1.60115">
        <ele>56.86</ele>
        <time>2014-09-20T05:46:58Z</time>
      </trkpt>
      <trkpt lat="43.35132" lon="-1.60112">
        <ele>57.34</ele>
        <time>2014-09-20T05:47:04Z</time>
      </trkpt>
      <trkpt lat="43.35129" lon="-1.60109">
        <ele>57.34</ele>
        <time>2014-09-20T05:47:13Z</time>
      </trkpt>
      <trkpt lat="43.35123" lon="-1.60088">
        <ele>57.82</ele>
        <time>2014-09-20T05:47:22Z</time>
      </trkpt>
      <trkpt lat="43.3512" lon="-1.60065">
        <ele>58.78</ele>
        <time>2014-09-20T05:47:32Z</time>
      </trkpt>
      <trkpt lat="43.35122" lon="-1.60049">
        <ele>59.26</ele>
        <time>2014-09-20T05:47:39Z</time>
      </trkpt>
      <trkpt lat="43.35123" lon="-1.60023">
        <ele>62.14</ele>
        <time>2014-09-20T05:47:51Z</time>
      </trkpt>
      <trkpt lat="43.35128" lon="-1.59985">
        <ele>61.66</ele>
        <time>2014-09-20T05:48:07Z</time>
      </trkpt>
      <trkpt lat="43.3513" lon="-1.59959">
        <ele>62.14</ele>
        <time>2014-09-20T05:48:16Z</time>
      </trkpt>
      <trkpt lat="43.35133" lon="-1.59952">
        <ele>63.58</ele>
        <time>2014-09-20T05:48:19Z</time>
      </trkpt>
      <trkpt lat="43.35139" lon="-1.5995">
        <ele>65.03</ele>
        <time>2014-09-20T05:48:29Z</time>
      </trkpt>
      <trkpt lat="43.35139" lon="-1.59949">
        <ele>65.51</ele>
        <time>2014-09-20T05:48:30Z</time>
      </trkpt>
      <trkpt lat="43.35143" lon="-1.59949">
        <ele>66.47</ele>
        <time>2014-09-20T05:48:46Z</time>
      </trkpt>
      <trkpt lat="43.35143" lon="-1.59948">
        <ele>65.99</ele>
        <time>2014-09-20T05:49:05Z</time>
      </trkpt>
      <trkpt lat="43.35153" lon="-1.59931">
        <ele>68.87</ele>
        <time>2014-09-20T05:49:14Z</time>
      </trkpt>
      <trkpt lat="43.35164" lon="-1.5992">
        <ele>72.24</ele>
        <time>2014-09-20T05:49:25Z</time>
      </trkpt>
      <trkpt lat="43.3517" lon="-1.59915">
        <ele>73.2</ele>
        <time>2014-09-20T05:49:31Z</time>
      </trkpt>
      <trkpt lat="43.35182" lon="-1.59905">
        <ele>75.6</ele>
        <time>2014-09-20T05:49:43Z</time>
      </trkpt>
      <trkpt lat="43.35187" lon="-1.59905">
        <ele>76.56</ele>
        <time>2014-09-20T05:49:47Z</time>
      </trkpt>
      <trkpt lat="43.35202" lon="-1.5991">
        <ele>77.04</ele>
        <time>2014-09-20T05:50:01Z</time>
      </trkpt>
      <trkpt lat="43.35221" lon="-1.59906">
        <ele>79.45</ele>
        <time>2014-09-20T05:50:16Z</time>
      </trkpt>
      <trkpt lat="43.35235" lon="-1.5991">
        <ele>82.81</ele>
        <time>2014-09-20T05:50:29Z</time>
      </trkpt>
      <trkpt lat="43.35239" lon="-1.59912">
        <ele>82.81</ele>
        <time>2014-09-20T05:50:33Z</time>
      </trkpt>
      <trkpt lat="43.35241" lon="-1.59911">
        <ele>82.81</ele>
        <time>2014-09-20T05:50:35Z</time>
      </trkpt>
      <trkpt lat="43.35248" lon="-1.59911">
        <ele>84.25</ele>
        <time>2014-09-20T05:50:41Z</time>
      </trkpt>
      <trkpt lat="43.3526" lon="-1.59905">
        <ele>86.18</ele>
        <time>2014-09-20T05:50:53Z</time>
      </trkpt>
      <trkpt lat="43.35273" lon="-1.59898">
        <ele>89.06</ele>
        <time>2014-09-20T05:51:07Z</time>
      </trkpt>
      <trkpt lat="43.35274" lon="-1.59897">
        <ele>89.06</ele>
        <time>2014-09-20T05:51:08Z</time>
      </trkpt>
      <trkpt lat="43.35276" lon="-1.59891">
        <ele>89.06</ele>
        <time>2014-09-20T05:51:12Z</time>
      </trkpt>
      <trkpt lat="43.35283" lon="-1.59863">
        <ele>89.54</ele>
        <time>2014-09-20T05:51:27Z</time>
      </trkpt>
      <trkpt lat="43.353" lon="-1.59845">
        <ele>91.46</ele>
        <time>2014-09-20T05:51:41Z</time>
      </trkpt>
      <trkpt lat="43.35317" lon="-1.59826">
        <ele>93.87</ele>
        <time>2014-09-20T05:51:57Z</time>
      </trkpt>
      <trkpt lat="43.35327" lon="-1.59814">
        <ele>94.83</ele>
        <time>2014-09-20T05:52:05Z</time>
      </trkpt>
      <trkpt lat="43.35337" lon="-1.59802">
        <ele>94.35</ele>
        <time>2014-09-20T05:52:12Z</time>
      </trkpt>
      <trkpt lat="43.3535" lon="-1.59795">
        <ele>95.79</ele>
        <time>2014-09-20T05:52:20Z</time>
      </trkpt>
      <trkpt lat="43.35359" lon="-1.59798">
        <ele>96.27</ele>
        <time>2014-09-20T05:52:26Z</time>
      </trkpt>
      <trkpt lat="43.35403" lon="-1.59805">
        <ele>94.83</ele>
        <time>2014-09-20T05:52:42Z</time>
      </trkpt>
      <trkpt lat="43.3543" lon="-1.59825">
        <ele>96.27</ele>
        <time>2014-09-20T05:52:53Z</time>
      </trkpt>
      <trkpt lat="43.35448" lon="-1.59846">
        <ele>98.19</ele>
        <time>2014-09-20T05:53:07Z</time>
      </trkpt>
      <trkpt lat="43.35449" lon="-1.59847">
        <ele>99.15</ele>
        <time>2014-09-20T05:53:22Z</time>
      </trkpt>
      <trkpt lat="43.35448" lon="-1.59848">
        <ele>98.67</ele>
        <time>2014-09-20T05:53:47Z</time>
      </trkpt>
      <trkpt lat="43.35449" lon="-1.59848">
        <ele>99.63</ele>
        <time>2014-09-20T05:54:04Z</time>
      </trkpt>
      <trkpt lat="43.35449" lon="-1.59847">
        <ele>99.15</ele>
        <time>2014-09-20T05:54:06Z</time>
      </trkpt>
      <trkpt lat="43.35462" lon="-1.59831">
        <ele>101.56</ele>
        <time>2014-09-20T05:54:17Z</time>
      </trkpt>
      <trkpt lat="43.35477" lon="-1.5982">
        <ele>103</ele>
        <time>2014-09-20T05:54:26Z</time>
      </trkpt>
      <trkpt lat="43.3548" lon="-1.59787">
        <ele>104.44</ele>
        <time>2014-09-20T05:54:39Z</time>
      </trkpt>
      <trkpt lat="43.35474" lon="-1.59748">
        <ele>107.81</ele>
        <time>2014-09-20T05:54:54Z</time>
      </trkpt>
      <trkpt lat="43.35469" lon="-1.59711">
        <ele>109.73</ele>
        <time>2014-09-20T05:55:08Z</time>
      </trkpt>
      <trkpt lat="43.35451" lon="-1.59681">
        <ele>112.13</ele>
        <time>2014-09-20T05:55:24Z</time>
      </trkpt>
      <trkpt lat="43.35449" lon="-1.5968">
        <ele>112.13</ele>
        <time>2014-09-20T05:55:25Z</time>
      </trkpt>
      <trkpt lat="43.35434" lon="-1.59658">
        <ele>115.01</ele>
        <time>2014-09-20T05:55:40Z</time>
      </trkpt>
      <trkpt lat="43.35427" lon="-1.5965">
        <ele>116.94</ele>
        <time>2014-09-20T05:55:46Z</time>
      </trkpt>
      <trkpt lat="43.35419" lon="-1.59647">
        <ele>117.42</ele>
        <time>2014-09-20T05:55:51Z</time>
      </trkpt>
      <trkpt lat="43.35414" lon="-1.59644">
        <ele>117.9</ele>
        <time>2014-09-20T05:55:54Z</time>
      </trkpt>
      <trkpt lat="43.35392" lon="-1.59631">
        <ele>119.34</ele>
        <time>2014-09-20T05:56:08Z</time>
      </trkpt>
      <trkpt lat="43.3537" lon="-1.59612">
        <ele>121.26</ele>
        <time>2014-09-20T05:56:23Z</time>
      </trkpt>
      <trkpt lat="43.35366" lon="-1.59608">
        <ele>121.26</ele>
        <time>2014-09-20T05:56:26Z</time>
      </trkpt>
      <trkpt lat="43.35349" lon="-1.5958">
        <ele>124.63</ele>
        <time>2014-09-20T05:56:42Z</time>
      </trkpt>
      <trkpt lat="43.35335" lon="-1.59542">
        <ele>127.51</ele>
        <time>2014-09-20T05:57:00Z</time>
      </trkpt>
      <trkpt lat="43.35321" lon="-1.59497">
        <ele>127.99</ele>
        <time>2014-09-20T05:57:19Z</time>
      </trkpt>
      <trkpt lat="43.35304" lon="-1.59458">
        <ele>129.92</ele>
        <time>2014-09-20T05:57:36Z</time>
      </trkpt>
      <trkpt lat="43.35295" lon="-1.59418">
        <ele>132.8</ele>
        <time>2014-09-20T05:57:53Z</time>
      </trkpt>
      <trkpt lat="43.35294" lon="-1.5938">
        <ele>136.16</ele>
        <time>2014-09-20T05:58:11Z</time>
      </trkpt>
      <trkpt lat="43.35303" lon="-1.59358">
        <ele>139.05</ele>
        <time>2014-09-20T05:58:24Z</time>
      </trkpt>
      <trkpt lat="43.35315" lon="-1.59354">
        <ele>140.49</ele>
        <time>2014-09-20T05:58:31Z</time>
      </trkpt>
      <trkpt lat="43.35336" lon="-1.5935">
        <ele>143.37</ele>
        <time>2014-09-20T05:58:44Z</time>
      </trkpt>
      <trkpt lat="43.35364" lon="-1.59338">
        <ele>145.78</ele>
        <time>2014-09-20T05:59:01Z</time>
      </trkpt>
      <trkpt lat="43.35384" lon="-1.59298">
        <ele>146.26</ele>
        <time>2014-09-20T05:59:15Z</time>
      </trkpt>
      <trkpt lat="43.35398" lon="-1.59245">
        <ele>148.18</ele>
        <time>2014-09-20T05:59:33Z</time>
      </trkpt>
      <trkpt lat="43.3541" lon="-1.5919">
        <ele>150.1</ele>
        <time>2014-09-20T05:59:50Z</time>
      </trkpt>
      <trkpt lat="43.3543" lon="-1.59108">
        <ele>150.1</ele>
        <time>2014-09-20T06:00:08Z</time>
      </trkpt>
      <trkpt lat="43.35432" lon="-1.59103">
        <ele>150.1</ele>
        <time>2014-09-20T06:00:09Z</time>
      </trkpt>
      <trkpt lat="43.35454" lon="-1.59035">
        <ele>149.14</ele>
        <time>2014-09-20T06:00:23Z</time>
      </trkpt>
      <trkpt lat="43.35447" lon="-1.59002">
        <ele>149.62</ele>
        <time>2014-09-20T06:00:30Z</time>
      </trkpt>
      <trkpt lat="43.35438" lon="-1.58969">
        <ele>153.47</ele>
        <time>2014-09-20T06:00:43Z</time>
      </trkpt>
      <trkpt lat="43.35438" lon="-1.58965">
        <ele>153.95</ele>
        <time>2014-09-20T06:00:45Z</time>
      </trkpt>
      <trkpt lat="43.35444" lon="-1.58938">
        <ele>155.39</ele>
        <time>2014-09-20T06:00:58Z</time>
      </trkpt>
      <trkpt lat="43.35451" lon="-1.58898">
        <ele>156.83</ele>
        <time>2014-09-20T06:01:12Z</time>
      </trkpt>
      <trkpt lat="43.35451" lon="-1.58873">
        <ele>158.75</ele>
        <time>2014-09-20T06:01:22Z</time>
      </trkpt>
      <trkpt lat="43.35453" lon="-1.58857">
        <ele>160.2</ele>
        <time>2014-09-20T06:01:30Z</time>
      </trkpt>
      <trkpt lat="43.35458" lon="-1.58828">
        <ele>162.6</ele>
        <time>2014-09-20T06:01:45Z</time>
      </trkpt>
      <trkpt lat="43.35467" lon="-1.58806">
        <ele>165.96</ele>
        <time>2014-09-20T06:01:58Z</time>
      </trkpt>
      <trkpt lat="43.35468" lon="-1.58796">
        <ele>167.41</ele>
        <time>2014-09-20T06:02:04Z</time>
      </trkpt>
      <trkpt lat="43.35471" lon="-1.5879">
        <ele>168.37</ele>
        <time>2014-09-20T06:02:08Z</time>
      </trkpt>
      <trkpt lat="43.35475" lon="-1.58782">
        <ele>169.81</ele>
        <time>2014-09-20T06:02:13Z</time>
      </trkpt>
      <trkpt lat="43.35486" lon="-1.5876">
        <ele>171.73</ele>
        <time>2014-09-20T06:02:29Z</time>
      </trkpt>
      <trkpt lat="43.35489" lon="-1.5875">
        <ele>173.17</ele>
        <time>2014-09-20T06:02:35Z</time>
      </trkpt>
      <trkpt lat="43.35498" lon="-1.58726">
        <ele>175.1</ele>
        <time>2014-09-20T06:02:51Z</time>
      </trkpt>
      <trkpt lat="43.35518" lon="-1.58713">
        <ele>177.02</ele>
        <time>2014-09-20T06:03:08Z</time>
      </trkpt>
      <trkpt lat="43.35535" lon="-1.58717">
        <ele>178.94</ele>
        <time>2014-09-20T06:03:22Z</time>
      </trkpt>
      <trkpt lat="43.35538" lon="-1.58721">
        <ele>179.9</ele>
        <time>2014-09-20T06:03:25Z</time>
      </trkpt>
      <trkpt lat="43.35544" lon="-1.58727">
        <ele>180.87</ele>
        <time>2014-09-20T06:03:31Z</time>
      </trkpt>
      <trkpt lat="43.35548" lon="-1.5873">
        <ele>182.79</ele>
        <time>2014-09-20T06:03:35Z</time>
      </trkpt>
      <trkpt lat="43.35562" lon="-1.58744">
        <ele>185.19</ele>
        <time>2014-09-20T06:03:47Z</time>
      </trkpt>
      <trkpt lat="43.35582" lon="-1.5875">
        <ele>185.19</ele>
        <time>2014-09-20T06:04:00Z</time>
      </trkpt>
      <trkpt lat="43.35592" lon="-1.5874">
        <ele>185.67</ele>
        <time>2014-09-20T06:04:10Z</time>
      </trkpt>
      <trkpt lat="43.35592" lon="-1.58743">
        <ele>185.67</ele>
        <time>2014-09-20T06:04:18Z</time>
      </trkpt>
      <trkpt lat="43.35592" lon="-1.58744">
        <ele>185.67</ele>
        <time>2014-09-20T06:04:52Z</time>
      </trkpt>
      <trkpt lat="43.35592" lon="-1.58744">
        <ele>185.67</ele>
        <time>2014-09-20T06:05:33Z</time>
      </trkpt>
      <trkpt lat="43.35592" lon="-1.58744">
        <ele>186.15</ele>
        <time>2014-09-20T06:05:53Z</time>
      </trkpt>
      <trkpt lat="43.35591" lon="-1.58745">
        <ele>185.19</ele>
        <time>2014-09-20T06:05:58Z</time>
      </trkpt>
      <trkpt lat="43.35582" lon="-1.58749">
        <ele>184.23</ele>
        <time>2014-09-20T06:06:04Z</time>
      </trkpt>
      <trkpt lat="43.35552" lon="-1.58734">
        <ele>183.75</ele>
        <time>2014-09-20T06:06:18Z</time>
      </trkpt>
      <trkpt lat="43.35535" lon="-1.58717">
        <ele>179.42</ele>
        <time>2014-09-20T06:06:22Z</time>
      </trkpt>
      <trkpt lat="43.3552" lon="-1.58699">
        <ele>175.58</ele>
        <time>2014-09-20T06:06:25Z</time>
      </trkpt>
      <trkpt lat="43.35517" lon="-1.58693">
        <ele>175.58</ele>
        <time>2014-09-20T06:06:26Z</time>
      </trkpt>
      <trkpt lat="43.35509" lon="-1.58671">
        <ele>174.14</ele>
        <time>2014-09-20T06:06:30Z</time>
      </trkpt>
      <trkpt lat="43.35491" lon="-1.58645">
        <ele>170.29</ele>
        <time>2014-09-20T06:06:35Z</time>
      </trkpt>
      <trkpt lat="43.35479" lon="-1.58627">
        <ele>168.85</ele>
        <time>2014-09-20T06:06:38Z</time>
      </trkpt>
      <trkpt lat="43.35479" lon="-1.5862">
        <ele>168.37</ele>
        <time>2014-09-20T06:06:39Z</time>
      </trkpt>
      <trkpt lat="43.35488" lon="-1.58566">
        <ele>170.77</ele>
        <time>2014-09-20T06:06:50Z</time>
      </trkpt>
      <trkpt lat="43.35489" lon="-1.58529">
        <ele>173.17</ele>
        <time>2014-09-20T06:07:02Z</time>
      </trkpt>
      <trkpt lat="43.35481" lon="-1.58482">
        <ele>173.66</ele>
        <time>2014-09-20T06:07:17Z</time>
      </trkpt>
      <trkpt lat="43.35478" lon="-1.58474">
        <ele>177.5</ele>
        <time>2014-09-20T06:07:24Z</time>
      </trkpt>
      <trkpt lat="43.35478" lon="-1.58474">
        <ele>176.54</ele>
        <time>2014-09-20T06:07:25Z</time>
      </trkpt>
      <trkpt lat="43.35478" lon="-1.58474">
        <ele>173.17</ele>
        <time>2014-09-20T06:07:26Z</time>
      </trkpt>
      <trkpt lat="43.35478" lon="-1.58474">
        <ele>170.29</ele>
        <time>2014-09-20T06:07:27Z</time>
      </trkpt>
      <trkpt lat="43.35478" lon="-1.58474">
        <ele>170.29</ele>
        <time>2014-09-20T06:07:28Z</time>
      </trkpt>
      <trkpt lat="43.35478" lon="-1.58474">
        <ele>173.66</ele>
        <time>2014-09-20T06:07:29Z</time>
      </trkpt>
      <trkpt lat="43.35478" lon="-1.58474">
        <ele>174.62</ele>
        <time>2014-09-20T06:07:31Z</time>
      </trkpt>
      <trkpt lat="43.35468" lon="-1.58452">
        <ele>172.69</ele>
        <time>2014-09-20T06:07:46Z</time>
      </trkpt>
      <trkpt lat="43.35466" lon="-1.58447">
        <ele>172.21</ele>
        <time>2014-09-20T06:07:47Z</time>
      </trkpt>
      <trkpt lat="43.35456" lon="-1.58429">
        <ele>171.73</ele>
        <time>2014-09-20T06:07:51Z</time>
      </trkpt>
      <trkpt lat="43.35445" lon="-1.58409">
        <ele>169.81</ele>
        <time>2014-09-20T06:07:55Z</time>
      </trkpt>
      <trkpt lat="43.35434" lon="-1.58392">
        <ele>167.89</ele>
        <time>2014-09-20T06:07:58Z</time>
      </trkpt>
      <trkpt lat="43.35409" lon="-1.58358">
        <ele>164.04</ele>
        <time>2014-09-20T06:08:03Z</time>
      </trkpt>
      <trkpt lat="43.35405" lon="-1.58352">
        <ele>162.6</ele>
        <time>2014-09-20T06:08:04Z</time>
      </trkpt>
      <trkpt lat="43.35385" lon="-1.58325">
        <ele>156.35</ele>
        <time>2014-09-20T06:08:08Z</time>
      </trkpt>
      <trkpt lat="43.35374" lon="-1.58308">
        <ele>153.95</ele>
        <time>2014-09-20T06:08:10Z</time>
      </trkpt>
      <trkpt lat="43.35364" lon="-1.58296">
        <ele>153.95</ele>
        <time>2014-09-20T06:08:12Z</time>
      </trkpt>
      <trkpt lat="43.35342" lon="-1.58263">
        <ele>149.14</ele>
        <time>2014-09-20T06:08:18Z</time>
      </trkpt>
      <trkpt lat="43.35316" lon="-1.58251">
        <ele>147.22</ele>
        <time>2014-09-20T06:08:25Z</time>
      </trkpt>
      <trkpt lat="43.35301" lon="-1.58245">
        <ele>144.82</ele>
        <time>2014-09-20T06:08:28Z</time>
      </trkpt>
      <trkpt lat="43.35297" lon="-1.58241">
        <ele>145.78</ele>
        <time>2014-09-20T06:08:29Z</time>
      </trkpt>
      <trkpt lat="43.35285" lon="-1.58232">
        <ele>145.3</ele>
        <time>2014-09-20T06:08:32Z</time>
      </trkpt>
      <trkpt lat="43.35271" lon="-1.58219">
        <ele>146.26</ele>
        <time>2014-09-20T06:08:36Z</time>
      </trkpt>
      <trkpt lat="43.35239" lon="-1.58179">
        <ele>143.37</ele>
        <time>2014-09-20T06:08:48Z</time>
      </trkpt>
      <trkpt lat="43.35237" lon="-1.58175">
        <ele>142.89</ele>
        <time>2014-09-20T06:08:49Z</time>
      </trkpt>
      <trkpt lat="43.35229" lon="-1.58165">
        <ele>140.49</ele>
        <time>2014-09-20T06:08:52Z</time>
      </trkpt>
      <trkpt lat="43.35214" lon="-1.5815">
        <ele>138.57</ele>
        <time>2014-09-20T06:08:57Z</time>
      </trkpt>
      <trkpt lat="43.35204" lon="-1.58148">
        <ele>136.64</ele>
        <time>2014-09-20T06:09:01Z</time>
      </trkpt>
      <trkpt lat="43.35178" lon="-1.58128">
        <ele>132.32</ele>
        <time>2014-09-20T06:09:09Z</time>
      </trkpt>
      <trkpt lat="43.35169" lon="-1.58106">
        <ele>129.92</ele>
        <time>2014-09-20T06:09:16Z</time>
      </trkpt>
      <trkpt lat="43.35165" lon="-1.58079">
        <ele>127.03</ele>
        <time>2014-09-20T06:09:23Z</time>
      </trkpt>
      <trkpt lat="43.35161" lon="-1.58051">
        <ele>122.71</ele>
        <time>2014-09-20T06:09:30Z</time>
      </trkpt>
      <trkpt lat="43.3516" lon="-1.58036">
        <ele>119.34</ele>
        <time>2014-09-20T06:09:35Z</time>
      </trkpt>
      <trkpt lat="43.35159" lon="-1.58031">
        <ele>118.38</ele>
        <time>2014-09-20T06:09:36Z</time>
      </trkpt>
      <trkpt lat="43.3516" lon="-1.58002">
        <ele>115.01</ele>
        <time>2014-09-20T06:09:42Z</time>
      </trkpt>
      <trkpt lat="43.35158" lon="-1.57989">
        <ele>113.57</ele>
        <time>2014-09-20T06:09:45Z</time>
      </trkpt>
      <trkpt lat="43.3516" lon="-1.57982">
        <ele>111.65</ele>
        <time>2014-09-20T06:09:47Z</time>
      </trkpt>
      <trkpt lat="43.35156" lon="-1.57968">
        <ele>108.29</ele>
        <time>2014-09-20T06:09:52Z</time>
      </trkpt>
      <trkpt lat="43.35146" lon="-1.57955">
        <ele>104.44</ele>
        <time>2014-09-20T06:09:57Z</time>
      </trkpt>
      <trkpt lat="43.35147" lon="-1.57946">
        <ele>103.96</ele>
        <time>2014-09-20T06:09:59Z</time>
      </trkpt>
      <trkpt lat="43.35134" lon="-1.57932">
        <ele>100.11</ele>
        <time>2014-09-20T06:10:05Z</time>
      </trkpt>
      <trkpt lat="43.35137" lon="-1.57925">
        <ele>99.63</ele>
        <time>2014-09-20T06:10:13Z</time>
      </trkpt>
      <trkpt lat="43.35138" lon="-1.57925">
        <ele>99.63</ele>
        <time>2014-09-20T06:10:14Z</time>
      </trkpt>
      <trkpt lat="43.35139" lon="-1.5792">
        <ele>99.63</ele>
        <time>2014-09-20T06:10:25Z</time>
      </trkpt>
      <trkpt lat="43.35144" lon="-1.57914">
        <ele>98.19</ele>
        <time>2014-09-20T06:10:29Z</time>
      </trkpt>
      <trkpt lat="43.35146" lon="-1.57898">
        <ele>99.15</ele>
        <time>2014-09-20T06:10:34Z</time>
      </trkpt>
      <trkpt lat="43.35133" lon="-1.57859">
        <ele>95.79</ele>
        <time>2014-09-20T06:10:43Z</time>
      </trkpt>
      <trkpt lat="43.35125" lon="-1.57847">
        <ele>93.39</ele>
        <time>2014-09-20T06:10:46Z</time>
      </trkpt>
      <trkpt lat="43.3512" lon="-1.57838">
        <ele>91.46</ele>
        <time>2014-09-20T06:10:48Z</time>
      </trkpt>
      <trkpt lat="43.35109" lon="-1.57819">
        <ele>87.14</ele>
        <time>2014-09-20T06:10:52Z</time>
      </trkpt>
      <trkpt lat="43.35104" lon="-1.57802">
        <ele>84.73</ele>
        <time>2014-09-20T06:10:55Z</time>
      </trkpt>
      <trkpt lat="43.35103" lon="-1.57776">
        <ele>81.37</ele>
        <time>2014-09-20T06:10:59Z</time>
      </trkpt>
      <trkpt lat="43.351" lon="-1.57758">
        <ele>78.48</ele>
        <time>2014-09-20T06:11:02Z</time>
      </trkpt>
      <trkpt lat="43.35093" lon="-1.57738">
        <ele>77.04</ele>
        <time>2014-09-20T06:11:05Z</time>
      </trkpt>
      <trkpt lat="43.35092" lon="-1.57707">
        <ele>74.64</ele>
        <time>2014-09-20T06:11:09Z</time>
      </trkpt>
      <trkpt lat="43.35103" lon="-1.57677">
        <ele>70.79</ele>
        <time>2014-09-20T06:11:13Z</time>
      </trkpt>
      <trkpt lat="43.3512" lon="-1.57662">
        <ele>67.43</ele>
        <time>2014-09-20T06:11:17Z</time>
      </trkpt>
      <trkpt lat="43.35137" lon="-1.5765">
        <ele>65.03</ele>
        <time>2014-09-20T06:11:20Z</time>
      </trkpt>
      <trkpt lat="43.35152" lon="-1.57641">
        <ele>63.1</ele>
        <time>2014-09-20T06:11:23Z</time>
      </trkpt>
      <trkpt lat="43.35171" lon="-1.57637">
        <ele>62.62</ele>
        <time>2014-09-20T06:11:31Z</time>
      </trkpt>
      <trkpt lat="43.35175" lon="-1.57635">
        <ele>62.14</ele>
        <time>2014-09-20T06:11:41Z</time>
      </trkpt>
      <trkpt lat="43.35184" lon="-1.57625">
        <ele>61.66</ele>
        <time>2014-09-20T06:11:45Z</time>
      </trkpt>
      <trkpt lat="43.35198" lon="-1.5761">
        <ele>58.78</ele>
        <time>2014-09-20T06:11:49Z</time>
      </trkpt>
      <trkpt lat="43.35209" lon="-1.57602">
        <ele>56.86</ele>
        <time>2014-09-20T06:11:52Z</time>
      </trkpt>
      <trkpt lat="43.35225" lon="-1.57593">
        <ele>51.57</ele>
        <time>2014-09-20T06:11:56Z</time>
      </trkpt>
      <trkpt lat="43.35238" lon="-1.57585">
        <ele>48.2</ele>
        <time>2014-09-20T06:11:59Z</time>
      </trkpt>
      <trkpt lat="43.35243" lon="-1.57581">
        <ele>47.24</ele>
        <time>2014-09-20T06:12:00Z</time>
      </trkpt>
      <trkpt lat="43.35266" lon="-1.5757">
        <ele>41.95</ele>
        <time>2014-09-20T06:12:05Z</time>
      </trkpt>
      <trkpt lat="43.35284" lon="-1.5756">
        <ele>38.11</ele>
        <time>2014-09-20T06:12:09Z</time>
      </trkpt>
      <trkpt lat="43.35288" lon="-1.57559">
        <ele>38.11</ele>
        <time>2014-09-20T06:12:10Z</time>
      </trkpt>
      <trkpt lat="43.35294" lon="-1.57558">
        <ele>37.15</ele>
        <time>2014-09-20T06:12:12Z</time>
      </trkpt>
      <trkpt lat="43.35284" lon="-1.57546">
        <ele>32.82</ele>
        <time>2014-09-20T06:12:19Z</time>
      </trkpt>
      <trkpt lat="43.35269" lon="-1.5754">
        <ele>30.42</ele>
        <time>2014-09-20T06:12:22Z</time>
      </trkpt>
      <trkpt lat="43.3526" lon="-1.57527">
        <ele>26.09</ele>
        <time>2014-09-20T06:12:26Z</time>
      </trkpt>
      <trkpt lat="43.35266" lon="-1.57508">
        <ele>22.73</ele>
        <time>2014-09-20T06:12:29Z</time>
      </trkpt>
      <trkpt lat="43.35268" lon="-1.57504">
        <ele>22.25</ele>
        <time>2014-09-20T06:12:30Z</time>
      </trkpt>
      <trkpt lat="43.35262" lon="-1.57495">
        <ele>21.29</ele>
        <time>2014-09-20T06:12:37Z</time>
      </trkpt>
      <trkpt lat="43.35258" lon="-1.57494">
        <ele>22.25</ele>
        <time>2014-09-20T06:12:43Z</time>
      </trkpt>
      <trkpt lat="43.35247" lon="-1.57497">
        <ele>22.25</ele>
        <time>2014-09-20T06:12:48Z</time>
      </trkpt>
      <trkpt lat="43.35211" lon="-1.57509">
        <ele>23.69</ele>
        <time>2014-09-20T06:13:03Z</time>
      </trkpt>
      <trkpt lat="43.35184" lon="-1.57524">
        <ele>26.09</ele>
        <time>2014-09-20T06:13:15Z</time>
      </trkpt>
      <trkpt lat="43.35155" lon="-1.5754">
        <ele>27.05</ele>
        <time>2014-09-20T06:13:28Z</time>
      </trkpt>
      <trkpt lat="43.35127" lon="-1.57558">
        <ele>27.05</ele>
        <time>2014-09-20T06:13:39Z</time>
      </trkpt>
      <trkpt lat="43.35095" lon="-1.57587">
        <ele>26.09</ele>
        <time>2014-09-20T06:13:49Z</time>
      </trkpt>
      <trkpt lat="43.35076" lon="-1.57596">
        <ele>26.09</ele>
        <time>2014-09-20T06:13:54Z</time>
      </trkpt>
      <trkpt lat="43.35055" lon="-1.57601">
        <ele>25.61</ele>
        <time>2014-09-20T06:13:59Z</time>
      </trkpt>
      <trkpt lat="43.35025" lon="-1.57608">
        <ele>24.65</ele>
        <time>2014-09-20T06:14:06Z</time>
      </trkpt>
      <trkpt lat="43.34984" lon="-1.57623">
        <ele>25.61</ele>
        <time>2014-09-20T06:14:18Z</time>
      </trkpt>
      <trkpt lat="43.34971" lon="-1.57637">
        <ele>26.09</ele>
        <time>2014-09-20T06:14:23Z</time>
      </trkpt>
      <trkpt lat="43.34965" lon="-1.57641">
        <ele>26.09</ele>
        <time>2014-09-20T06:14:27Z</time>
      </trkpt>
      <trkpt lat="43.34957" lon="-1.57638">
        <ele>25.61</ele>
        <time>2014-09-20T06:14:32Z</time>
      </trkpt>
      <trkpt lat="43.34943" lon="-1.5764">
        <ele>26.09</ele>
        <time>2014-09-20T06:14:37Z</time>
      </trkpt>
      <trkpt lat="43.34935" lon="-1.57633">
        <ele>27.05</ele>
        <time>2014-09-20T06:14:43Z</time>
      </trkpt>
      <trkpt lat="43.34915" lon="-1.57628">
        <ele>28.98</ele>
        <time>2014-09-20T06:14:54Z</time>
      </trkpt>
      <trkpt lat="43.34908" lon="-1.57627">
        <ele>30.42</ele>
        <time>2014-09-20T06:15:00Z</time>
      </trkpt>
      <trkpt lat="43.349" lon="-1.57623">
        <ele>30.9</ele>
        <time>2014-09-20T06:15:03Z</time>
      </trkpt>
      <trkpt lat="43.34884" lon="-1.5761">
        <ele>33.78</ele>
        <time>2014-09-20T06:15:16Z</time>
      </trkpt>
      <trkpt lat="43.34881" lon="-1.57609">
        <ele>34.74</ele>
        <time>2014-09-20T06:15:18Z</time>
      </trkpt>
      <trkpt lat="43.34873" lon="-1.57603">
        <ele>35.23</ele>
        <time>2014-09-20T06:15:23Z</time>
      </trkpt>
      <trkpt lat="43.34863" lon="-1.57593">
        <ele>37.15</ele>
        <time>2014-09-20T06:15:30Z</time>
      </trkpt>
      <trkpt lat="43.34856" lon="-1.57585">
        <ele>39.55</ele>
        <time>2014-09-20T06:15:41Z</time>
      </trkpt>
      <trkpt lat="43.34847" lon="-1.57576">
        <ele>42.44</ele>
        <time>2014-09-20T06:15:54Z</time>
      </trkpt>
      <trkpt lat="43.34844" lon="-1.57574">
        <ele>42.44</ele>
        <time>2014-09-20T06:16:10Z</time>
      </trkpt>
      <trkpt lat="43.34841" lon="-1.57572">
        <ele>42.44</ele>
        <time>2014-09-20T06:16:35Z</time>
      </trkpt>
      <trkpt lat="43.34836" lon="-1.57556">
        <ele>45.8</ele>
        <time>2014-09-20T06:16:49Z</time>
      </trkpt>
      <trkpt lat="43.34836" lon="-1.57555">
        <ele>45.8</ele>
        <time>2014-09-20T06:16:50Z</time>
      </trkpt>
      <trkpt lat="43.3484" lon="-1.57543">
        <ele>49.16</ele>
        <time>2014-09-20T06:17:05Z</time>
      </trkpt>
      <trkpt lat="43.34835" lon="-1.57536">
        <ele>50.13</ele>
        <time>2014-09-20T06:17:15Z</time>
      </trkpt>
      <trkpt lat="43.34829" lon="-1.57531">
        <ele>52.05</ele>
        <time>2014-09-20T06:17:21Z</time>
      </trkpt>
      <trkpt lat="43.34818" lon="-1.57517">
        <ele>53.97</ele>
        <time>2014-09-20T06:17:37Z</time>
      </trkpt>
      <trkpt lat="43.34816" lon="-1.57515">
        <ele>53.97</ele>
        <time>2014-09-20T06:17:49Z</time>
      </trkpt>
      <trkpt lat="43.34811" lon="-1.57507">
        <ele>55.41</ele>
        <time>2014-09-20T06:17:55Z</time>
      </trkpt>
      <trkpt lat="43.34811" lon="-1.57501">
        <ele>56.37</ele>
        <time>2014-09-20T06:17:59Z</time>
      </trkpt>
      <trkpt lat="43.34812" lon="-1.57497">
        <ele>56.86</ele>
        <time>2014-09-20T06:18:01Z</time>
      </trkpt>
      <trkpt lat="43.34809" lon="-1.57473">
        <ele>60.22</ele>
        <time>2014-09-20T06:18:13Z</time>
      </trkpt>
      <trkpt lat="43.34809" lon="-1.57469">
        <ele>61.18</ele>
        <time>2014-09-20T06:18:15Z</time>
      </trkpt>
      <trkpt lat="43.34809" lon="-1.57462">
        <ele>62.62</ele>
        <time>2014-09-20T06:18:19Z</time>
      </trkpt>
      <trkpt lat="43.34807" lon="-1.57459">
        <ele>63.58</ele>
        <time>2014-09-20T06:18:21Z</time>
      </trkpt>
      <trkpt lat="43.34807" lon="-1.57458">
        <ele>63.1</ele>
        <time>2014-09-20T06:18:22Z</time>
      </trkpt>
      <trkpt lat="43.34807" lon="-1.57439">
        <ele>65.03</ele>
        <time>2014-09-20T06:18:33Z</time>
      </trkpt>
      <trkpt lat="43.3481" lon="-1.57421">
        <ele>67.91</ele>
        <time>2014-09-20T06:18:44Z</time>
      </trkpt>
      <trkpt lat="43.3481" lon="-1.57414">
        <ele>68.87</ele>
        <time>2014-09-20T06:19:00Z</time>
      </trkpt>
      <trkpt lat="43.34814" lon="-1.57401">
        <ele>72.24</ele>
        <time>2014-09-20T06:19:14Z</time>
      </trkpt>
      <trkpt lat="43.34821" lon="-1.57386">
        <ele>75.12</ele>
        <time>2014-09-20T06:19:29Z</time>
      </trkpt>
      <trkpt lat="43.34822" lon="-1.57382">
        <ele>75.12</ele>
        <time>2014-09-20T06:19:43Z</time>
      </trkpt>
      <trkpt lat="43.34822" lon="-1.57375">
        <ele>76.08</ele>
        <time>2014-09-20T06:20:01Z</time>
      </trkpt>
      <trkpt lat="43.34825" lon="-1.57347">
        <ele>78</ele>
        <time>2014-09-20T06:20:15Z</time>
      </trkpt>
      <trkpt lat="43.34825" lon="-1.5732">
        <ele>80.89</ele>
        <time>2014-09-20T06:20:27Z</time>
      </trkpt>
      <trkpt lat="43.34832" lon="-1.57298">
        <ele>83.77</ele>
        <time>2014-09-20T06:20:39Z</time>
      </trkpt>
      <trkpt lat="43.34833" lon="-1.57292">
        <ele>85.21</ele>
        <time>2014-09-20T06:20:42Z</time>
      </trkpt>
      <trkpt lat="43.34832" lon="-1.57288">
        <ele>85.21</ele>
        <time>2014-09-20T06:20:44Z</time>
      </trkpt>
      <trkpt lat="43.3483" lon="-1.57286">
        <ele>85.69</ele>
        <time>2014-09-20T06:20:46Z</time>
      </trkpt>
      <trkpt lat="43.3482" lon="-1.5729">
        <ele>86.18</ele>
        <time>2014-09-20T06:20:56Z</time>
      </trkpt>
      <trkpt lat="43.34813" lon="-1.57296">
        <ele>87.14</ele>
        <time>2014-09-20T06:21:08Z</time>
      </trkpt>
      <trkpt lat="43.34813" lon="-1.57295">
        <ele>87.14</ele>
        <time>2014-09-20T06:21:25Z</time>
      </trkpt>
      <trkpt lat="43.34813" lon="-1.57294">
        <ele>87.62</ele>
        <time>2014-09-20T06:21:42Z</time>
      </trkpt>
      <trkpt lat="43.34808" lon="-1.57298">
        <ele>89.06</ele>
        <time>2014-09-20T06:22:06Z</time>
      </trkpt>
      <trkpt lat="43.3481" lon="-1.573">
        <ele>87.14</ele>
        <time>2014-09-20T06:22:24Z</time>
      </trkpt>
      <trkpt lat="43.34809" lon="-1.57303">
        <ele>87.62</ele>
        <time>2014-09-20T06:22:29Z</time>
      </trkpt>
      <trkpt lat="43.34808" lon="-1.57304">
        <ele>88.1</ele>
        <time>2014-09-20T06:22:31Z</time>
      </trkpt>
      <trkpt lat="43.34797" lon="-1.57323">
        <ele>89.54</ele>
        <time>2014-09-20T06:22:45Z</time>
      </trkpt>
      <trkpt lat="43.34796" lon="-1.57324">
        <ele>89.54</ele>
        <time>2014-09-20T06:22:46Z</time>
      </trkpt>
      <trkpt lat="43.34783" lon="-1.5734">
        <ele>92.9</ele>
        <time>2014-09-20T06:23:04Z</time>
      </trkpt>
      <trkpt lat="43.34784" lon="-1.5734">
        <ele>92.42</ele>
        <time>2014-09-20T06:23:18Z</time>
      </trkpt>
      <trkpt lat="43.34783" lon="-1.5734">
        <ele>92.42</ele>
        <time>2014-09-20T06:23:47Z</time>
      </trkpt>
      <trkpt lat="43.34774" lon="-1.57346">
        <ele>94.83</ele>
        <time>2014-09-20T06:23:59Z</time>
      </trkpt>
      <trkpt lat="43.34772" lon="-1.57347">
        <ele>95.31</ele>
        <time>2014-09-20T06:24:05Z</time>
      </trkpt>
      <trkpt lat="43.34771" lon="-1.57347">
        <ele>95.31</ele>
        <time>2014-09-20T06:24:08Z</time>
      </trkpt>
      <trkpt lat="43.34743" lon="-1.57351">
        <ele>98.67</ele>
        <time>2014-09-20T06:24:27Z</time>
      </trkpt>
      <trkpt lat="43.34736" lon="-1.57349">
        <ele>99.15</ele>
        <time>2014-09-20T06:24:32Z</time>
      </trkpt>
      <trkpt lat="43.34716" lon="-1.57335">
        <ele>101.08</ele>
        <time>2014-09-20T06:24:47Z</time>
      </trkpt>
      <trkpt lat="43.34698" lon="-1.57321">
        <ele>103.96</ele>
        <time>2014-09-20T06:25:02Z</time>
      </trkpt>
      <trkpt lat="43.34692" lon="-1.57319">
        <ele>105.4</ele>
        <time>2014-09-20T06:25:07Z</time>
      </trkpt>
      <trkpt lat="43.34676" lon="-1.57314">
        <ele>108.77</ele>
        <time>2014-09-20T06:25:20Z</time>
      </trkpt>
      <trkpt lat="43.34661" lon="-1.57313">
        <ele>111.17</ele>
        <time>2014-09-20T06:25:33Z</time>
      </trkpt>
      <trkpt lat="43.34656" lon="-1.57302">
        <ele>113.09</ele>
        <time>2014-09-20T06:25:41Z</time>
      </trkpt>
      <trkpt lat="43.34658" lon="-1.57297">
        <ele>114.05</ele>
        <time>2014-09-20T06:25:44Z</time>
      </trkpt>
      <trkpt lat="43.34663" lon="-1.57297">
        <ele>113.57</ele>
        <time>2014-09-20T06:25:48Z</time>
      </trkpt>
      <trkpt lat="43.34675" lon="-1.57292">
        <ele>115.98</ele>
        <time>2014-09-20T06:25:58Z</time>
      </trkpt>
      <trkpt lat="43.34683" lon="-1.57282">
        <ele>117.9</ele>
        <time>2014-09-20T06:26:07Z</time>
      </trkpt>
      <trkpt lat="43.34686" lon="-1.57267">
        <ele>119.82</ele>
        <time>2014-09-20T06:26:17Z</time>
      </trkpt>
      <trkpt lat="43.34685" lon="-1.57262">
        <ele>120.78</ele>
        <time>2014-09-20T06:26:20Z</time>
      </trkpt>
      <trkpt lat="43.3468" lon="-1.57252">
        <ele>121.26</ele>
        <time>2014-09-20T06:26:27Z</time>
      </trkpt>
      <trkpt lat="43.34654" lon="-1.57249">
        <ele>123.67</ele>
        <time>2014-09-20T06:26:46Z</time>
      </trkpt>
      <trkpt lat="43.34647" lon="-1.5725">
        <ele>125.11</ele>
        <time>2014-09-20T06:26:52Z</time>
      </trkpt>
      <trkpt lat="43.34642" lon="-1.5725">
        <ele>125.59</ele>
        <time>2014-09-20T06:26:56Z</time>
      </trkpt>
      <trkpt lat="43.34624" lon="-1.57252">
        <ele>128.95</ele>
        <time>2014-09-20T06:27:11Z</time>
      </trkpt>
      <trkpt lat="43.34607" lon="-1.57247">
        <ele>131.84</ele>
        <time>2014-09-20T06:27:26Z</time>
      </trkpt>
      <trkpt lat="43.34594" lon="-1.5723">
        <ele>134.72</ele>
        <time>2014-09-20T06:27:41Z</time>
      </trkpt>
      <trkpt lat="43.34592" lon="-1.57221">
        <ele>135.2</ele>
        <time>2014-09-20T06:27:46Z</time>
      </trkpt>
      <trkpt lat="43.34592" lon="-1.572">
        <ele>136.64</ele>
        <time>2014-09-20T06:27:57Z</time>
      </trkpt>
      <trkpt lat="43.34581" lon="-1.57187">
        <ele>136.16</ele>
        <time>2014-09-20T06:28:05Z</time>
      </trkpt>
      <trkpt lat="43.34574" lon="-1.57185">
        <ele>136.16</ele>
        <time>2014-09-20T06:28:09Z</time>
      </trkpt>
      <trkpt lat="43.34546" lon="-1.57165">
        <ele>136.16</ele>
        <time>2014-09-20T06:28:24Z</time>
      </trkpt>
      <trkpt lat="43.34519" lon="-1.57144">
        <ele>135.2</ele>
        <time>2014-09-20T06:28:35Z</time>
      </trkpt>
      <trkpt lat="43.34484" lon="-1.5712">
        <ele>136.16</ele>
        <time>2014-09-20T06:28:47Z</time>
      </trkpt>
      <trkpt lat="43.34473" lon="-1.57113">
        <ele>138.09</ele>
        <time>2014-09-20T06:28:53Z</time>
      </trkpt>
      <trkpt lat="43.34456" lon="-1.57101">
        <ele>141.45</ele>
        <time>2014-09-20T06:29:05Z</time>
      </trkpt>
      <trkpt lat="43.34435" lon="-1.57083">
        <ele>144.82</ele>
        <time>2014-09-20T06:29:21Z</time>
      </trkpt>
      <trkpt lat="43.34413" lon="-1.57067">
        <ele>146.26</ele>
        <time>2014-09-20T06:29:35Z</time>
      </trkpt>
      <trkpt lat="43.34382" lon="-1.57041">
        <ele>145.78</ele>
        <time>2014-09-20T06:29:49Z</time>
      </trkpt>
      <trkpt lat="43.34366" lon="-1.56991">
        <ele>145.3</ele>
        <time>2014-09-20T06:30:01Z</time>
      </trkpt>
      <trkpt lat="43.34354" lon="-1.56945">
        <ele>144.82</ele>
        <time>2014-09-20T06:30:09Z</time>
      </trkpt>
      <trkpt lat="43.34349" lon="-1.56929">
        <ele>144.82</ele>
        <time>2014-09-20T06:30:12Z</time>
      </trkpt>
      <trkpt lat="43.34325" lon="-1.56884">
        <ele>144.82</ele>
        <time>2014-09-20T06:30:25Z</time>
      </trkpt>
      <trkpt lat="43.34294" lon="-1.5687">
        <ele>145.3</ele>
        <time>2014-09-20T06:30:37Z</time>
      </trkpt>
      <trkpt lat="43.34281" lon="-1.56864">
        <ele>144.34</ele>
        <time>2014-09-20T06:30:41Z</time>
      </trkpt>
      <trkpt lat="43.34232" lon="-1.56847">
        <ele>143.37</ele>
        <time>2014-09-20T06:30:55Z</time>
      </trkpt>
      <trkpt lat="43.34199" lon="-1.56843">
        <ele>146.74</ele>
        <time>2014-09-20T06:31:06Z</time>
      </trkpt>
      <trkpt lat="43.34194" lon="-1.56842">
        <ele>147.22</ele>
        <time>2014-09-20T06:31:08Z</time>
      </trkpt>
      <trkpt lat="43.34178" lon="-1.56837">
        <ele>148.18</ele>
        <time>2014-09-20T06:31:15Z</time>
      </trkpt>
      <trkpt lat="43.34171" lon="-1.56803">
        <ele>147.22</ele>
        <time>2014-09-20T06:31:27Z</time>
      </trkpt>
      <trkpt lat="43.34173" lon="-1.56798">
        <ele>147.7</ele>
        <time>2014-09-20T06:31:29Z</time>
      </trkpt>
      <trkpt lat="43.34188" lon="-1.56749">
        <ele>149.14</ele>
        <time>2014-09-20T06:31:43Z</time>
      </trkpt>
      <trkpt lat="43.34206" lon="-1.56706">
        <ele>150.58</ele>
        <time>2014-09-20T06:31:56Z</time>
      </trkpt>
      <trkpt lat="43.34218" lon="-1.56664">
        <ele>147.7</ele>
        <time>2014-09-20T06:32:04Z</time>
      </trkpt>
      <trkpt lat="43.34227" lon="-1.5662">
        <ele>143.37</ele>
        <time>2014-09-20T06:32:09Z</time>
      </trkpt>
      <trkpt lat="43.34233" lon="-1.56595">
        <ele>140.01</ele>
        <time>2014-09-20T06:32:11Z</time>
      </trkpt>
      <trkpt lat="43.34241" lon="-1.56567">
        <ele>136.64</ele>
        <time>2014-09-20T06:32:13Z</time>
      </trkpt>
      <trkpt lat="43.34251" lon="-1.56545">
        <ele>136.16</ele>
        <time>2014-09-20T06:32:15Z</time>
      </trkpt>
      <trkpt lat="43.34268" lon="-1.56506">
        <ele>133.76</ele>
        <time>2014-09-20T06:32:19Z</time>
      </trkpt>
      <trkpt lat="43.34289" lon="-1.56457">
        <ele>130.4</ele>
        <time>2014-09-20T06:32:25Z</time>
      </trkpt>
      <trkpt lat="43.34297" lon="-1.56438">
        <ele>127.99</ele>
        <time>2014-09-20T06:32:28Z</time>
      </trkpt>
      <trkpt lat="43.34302" lon="-1.56421">
        <ele>126.55</ele>
        <time>2014-09-20T06:32:31Z</time>
      </trkpt>
      <trkpt lat="43.3429" lon="-1.56391">
        <ele>123.67</ele>
        <time>2014-09-20T06:32:36Z</time>
      </trkpt>
      <trkpt lat="43.34274" lon="-1.56378">
        <ele>121.26</ele>
        <time>2014-09-20T06:32:39Z</time>
      </trkpt>
      <trkpt lat="43.34237" lon="-1.56356">
        <ele>119.34</ele>
        <time>2014-09-20T06:32:45Z</time>
      </trkpt>
      <trkpt lat="43.34232" lon="-1.56354">
        <ele>119.34</ele>
        <time>2014-09-20T06:32:46Z</time>
      </trkpt>
      <trkpt lat="43.34211" lon="-1.56323">
        <ele>117.42</ele>
        <time>2014-09-20T06:32:52Z</time>
      </trkpt>
      <trkpt lat="43.34204" lon="-1.56294">
        <ele>117.9</ele>
        <time>2014-09-20T06:32:56Z</time>
      </trkpt>
      <trkpt lat="43.342" lon="-1.56272">
        <ele>116.94</ele>
        <time>2014-09-20T06:32:59Z</time>
      </trkpt>
      <trkpt lat="43.34196" lon="-1.56258">
        <ele>116.94</ele>
        <time>2014-09-20T06:33:01Z</time>
      </trkpt>
      <trkpt lat="43.34193" lon="-1.56217">
        <ele>115.01</ele>
        <time>2014-09-20T06:33:06Z</time>
      </trkpt>
      <trkpt lat="43.34213" lon="-1.56151">
        <ele>112.13</ele>
        <time>2014-09-20T06:33:18Z</time>
      </trkpt>
      <trkpt lat="43.34233" lon="-1.56116">
        <ele>110.69</ele>
        <time>2014-09-20T06:33:29Z</time>
      </trkpt>
      <trkpt lat="43.34242" lon="-1.5611">
        <ele>110.69</ele>
        <time>2014-09-20T06:33:31Z</time>
      </trkpt>
      <trkpt lat="43.34263" lon="-1.561">
        <ele>110.69</ele>
        <time>2014-09-20T06:33:35Z</time>
      </trkpt>
      <trkpt lat="43.34295" lon="-1.56092">
        <ele>112.13</ele>
        <time>2014-09-20T06:33:47Z</time>
      </trkpt>
      <trkpt lat="43.34296" lon="-1.56093">
        <ele>112.13</ele>
        <time>2014-09-20T06:33:55Z</time>
      </trkpt>
      <trkpt lat="43.34321" lon="-1.5609">
        <ele>110.21</ele>
        <time>2014-09-20T06:34:03Z</time>
      </trkpt>
      <trkpt lat="43.34333" lon="-1.5609">
        <ele>109.25</ele>
        <time>2014-09-20T06:34:05Z</time>
      </trkpt>
      <trkpt lat="43.34338" lon="-1.5609">
        <ele>109.73</ele>
        <time>2014-09-20T06:34:06Z</time>
      </trkpt>
      <trkpt lat="43.34373" lon="-1.56102">
        <ele>108.77</ele>
        <time>2014-09-20T06:34:12Z</time>
      </trkpt>
      <trkpt lat="43.34425" lon="-1.56113">
        <ele>111.65</ele>
        <time>2014-09-20T06:34:22Z</time>
      </trkpt>
      <trkpt lat="43.34444" lon="-1.56121">
        <ele>111.17</ele>
        <time>2014-09-20T06:34:26Z</time>
      </trkpt>
      <trkpt lat="43.34465" lon="-1.56133">
        <ele>109.25</ele>
        <time>2014-09-20T06:34:30Z</time>
      </trkpt>
      <trkpt lat="43.34481" lon="-1.5614">
        <ele>108.29</ele>
        <time>2014-09-20T06:34:34Z</time>
      </trkpt>
      <trkpt lat="43.34506" lon="-1.56158">
        <ele>104.44</ele>
        <time>2014-09-20T06:34:39Z</time>
      </trkpt>
      <trkpt lat="43.34512" lon="-1.56162">
        <ele>104.44</ele>
        <time>2014-09-20T06:34:40Z</time>
      </trkpt>
      <trkpt lat="43.34526" lon="-1.56169">
        <ele>102.52</ele>
        <time>2014-09-20T06:34:42Z</time>
      </trkpt>
      <trkpt lat="43.34573" lon="-1.56166">
        <ele>98.67</ele>
        <time>2014-09-20T06:34:48Z</time>
      </trkpt>
      <trkpt lat="43.3458" lon="-1.56163">
        <ele>98.19</ele>
        <time>2014-09-20T06:34:49Z</time>
      </trkpt>
      <trkpt lat="43.34611" lon="-1.56146">
        <ele>95.79</ele>
        <time>2014-09-20T06:34:53Z</time>
      </trkpt>
      <trkpt lat="43.34626" lon="-1.56137">
        <ele>94.83</ele>
        <time>2014-09-20T06:34:55Z</time>
      </trkpt>
      <trkpt lat="43.34645" lon="-1.56122">
        <ele>93.39</ele>
        <time>2014-09-20T06:34:58Z</time>
      </trkpt>
      <trkpt lat="43.34652" lon="-1.56117">
        <ele>92.9</ele>
        <time>2014-09-20T06:34:59Z</time>
      </trkpt>
      <trkpt lat="43.34693" lon="-1.56093">
        <ele>89.06</ele>
        <time>2014-09-20T06:35:05Z</time>
      </trkpt>
      <trkpt lat="43.34711" lon="-1.56085">
        <ele>85.69</ele>
        <time>2014-09-20T06:35:08Z</time>
      </trkpt>
      <trkpt lat="43.34731" lon="-1.56076">
        <ele>82.33</ele>
        <time>2014-09-20T06:35:12Z</time>
      </trkpt>
      <trkpt lat="43.34744" lon="-1.56073">
        <ele>80.89</ele>
        <time>2014-09-20T06:35:15Z</time>
      </trkpt>
      <trkpt lat="43.34759" lon="-1.56061">
        <ele>76.56</ele>
        <time>2014-09-20T06:35:19Z</time>
      </trkpt>
      <trkpt lat="43.34774" lon="-1.56052">
        <ele>72.24</ele>
        <time>2014-09-20T06:35:22Z</time>
      </trkpt>
      <trkpt lat="43.3478" lon="-1.56052">
        <ele>71.27</ele>
        <time>2014-09-20T06:35:23Z</time>
      </trkpt>
      <trkpt lat="43.34801" lon="-1.56051">
        <ele>68.87</ele>
        <time>2014-09-20T06:35:26Z</time>
      </trkpt>
      <trkpt lat="43.34839" lon="-1.56066">
        <ele>64.55</ele>
        <time>2014-09-20T06:35:31Z</time>
      </trkpt>
      <trkpt lat="43.34846" lon="-1.5607">
        <ele>64.07</ele>
        <time>2014-09-20T06:35:32Z</time>
      </trkpt>
      <trkpt lat="43.34881" lon="-1.56097">
        <ele>60.22</ele>
        <time>2014-09-20T06:35:37Z</time>
      </trkpt>
      <trkpt lat="43.34892" lon="-1.56105">
        <ele>58.78</ele>
        <time>2014-09-20T06:35:39Z</time>
      </trkpt>
      <trkpt lat="43.34912" lon="-1.56116">
        <ele>53.49</ele>
        <time>2014-09-20T06:35:42Z</time>
      </trkpt>
      <trkpt lat="43.34939" lon="-1.5613">
        <ele>50.13</ele>
        <time>2014-09-20T06:35:45Z</time>
      </trkpt>
      <trkpt lat="43.34968" lon="-1.56141">
        <ele>43.4</ele>
        <time>2014-09-20T06:35:48Z</time>
      </trkpt>
      <trkpt lat="43.34989" lon="-1.56148">
        <ele>39.55</ele>
        <time>2014-09-20T06:35:50Z</time>
      </trkpt>
      <trkpt lat="43.35011" lon="-1.56158">
        <ele>36.19</ele>
        <time>2014-09-20T06:35:52Z</time>
      </trkpt>
      <trkpt lat="43.35058" lon="-1.56181">
        <ele>30.42</ele>
        <time>2014-09-20T06:35:57Z</time>
      </trkpt>
      <trkpt lat="43.35067" lon="-1.5618">
        <ele>28.5</ele>
        <time>2014-09-20T06:35:58Z</time>
      </trkpt>
      <trkpt lat="43.35087" lon="-1.56174">
        <ele>23.21</ele>
        <time>2014-09-20T06:36:00Z</time>
      </trkpt>
      <trkpt lat="43.35116" lon="-1.56152">
        <ele>19.36</ele>
        <time>2014-09-20T06:36:03Z</time>
      </trkpt>
      <trkpt lat="43.35147" lon="-1.5614">
        <ele>17.44</ele>
        <time>2014-09-20T06:36:06Z</time>
      </trkpt>
      <trkpt lat="43.35213" lon="-1.56147">
        <ele>16.48</ele>
        <time>2014-09-20T06:36:13Z</time>
      </trkpt>
      <trkpt lat="43.35251" lon="-1.56135">
        <ele>17.44</ele>
        <time>2014-09-20T06:36:24Z</time>
      </trkpt>
      <trkpt lat="43.35269" lon="-1.56126">
        <ele>16.96</ele>
        <time>2014-09-20T06:36:29Z</time>
      </trkpt>
      <trkpt lat="43.35292" lon="-1.5611">
        <ele>16.48</ele>
        <time>2014-09-20T06:36:35Z</time>
      </trkpt>
      <trkpt lat="43.35315" lon="-1.56084">
        <ele>16</ele>
        <time>2014-09-20T06:36:41Z</time>
      </trkpt>
      <trkpt lat="43.35344" lon="-1.5605">
        <ele>16.48</ele>
        <time>2014-09-20T06:36:49Z</time>
      </trkpt>
      <trkpt lat="43.3539" lon="-1.56018">
        <ele>16.96</ele>
        <time>2014-09-20T06:37:00Z</time>
      </trkpt>
      <trkpt lat="43.35401" lon="-1.56">
        <ele>17.44</ele>
        <time>2014-09-20T06:37:04Z</time>
      </trkpt>
      <trkpt lat="43.35406" lon="-1.55965">
        <ele>17.44</ele>
        <time>2014-09-20T06:37:10Z</time>
      </trkpt>
      <trkpt lat="43.35427" lon="-1.55934">
        <ele>17.44</ele>
        <time>2014-09-20T06:37:17Z</time>
      </trkpt>
      <trkpt lat="43.35455" lon="-1.55921">
        <ele>18.4</ele>
        <time>2014-09-20T06:37:23Z</time>
      </trkpt>
      <trkpt lat="43.3547" lon="-1.55885">
        <ele>16.96</ele>
        <time>2014-09-20T06:37:30Z</time>
      </trkpt>
      <trkpt lat="43.35467" lon="-1.55878">
        <ele>16.48</ele>
        <time>2014-09-20T06:37:31Z</time>
      </trkpt>
      <trkpt lat="43.35453" lon="-1.55846">
        <ele>17.92</ele>
        <time>2014-09-20T06:37:37Z</time>
      </trkpt>
      <trkpt lat="43.35444" lon="-1.55832">
        <ele>17.92</ele>
        <time>2014-09-20T06:37:40Z</time>
      </trkpt>
      <trkpt lat="43.35433" lon="-1.5582">
        <ele>17.92</ele>
        <time>2014-09-20T06:37:43Z</time>
      </trkpt>
      <trkpt lat="43.35418" lon="-1.55808">
        <ele>18.4</ele>
        <time>2014-09-20T06:37:47Z</time>
      </trkpt>
      <trkpt lat="43.35408" lon="-1.55796">
        <ele>17.92</ele>
        <time>2014-09-20T06:37:50Z</time>
      </trkpt>
      <trkpt lat="43.35399" lon="-1.55782">
        <ele>18.4</ele>
        <time>2014-09-20T06:37:53Z</time>
      </trkpt>
      <trkpt lat="43.35366" lon="-1.55688">
        <ele>18.4</ele>
        <time>2014-09-20T06:38:10Z</time>
      </trkpt>
      <trkpt lat="43.35363" lon="-1.55676">
        <ele>18.88</ele>
        <time>2014-09-20T06:38:12Z</time>
      </trkpt>
      <trkpt lat="43.35358" lon="-1.55651">
        <ele>18.88</ele>
        <time>2014-09-20T06:38:16Z</time>
      </trkpt>
      <trkpt lat="43.35336" lon="-1.55582">
        <ele>19.36</ele>
        <time>2014-09-20T06:38:28Z</time>
      </trkpt>
      <trkpt lat="43.35294" lon="-1.55506">
        <ele>19.36</ele>
        <time>2014-09-20T06:38:43Z</time>
      </trkpt>
      <trkpt lat="43.35287" lon="-1.55489">
        <ele>18.88</ele>
        <time>2014-09-20T06:38:46Z</time>
      </trkpt>
      <trkpt lat="43.35265" lon="-1.55375">
        <ele>18.88</ele>
        <time>2014-09-20T06:39:03Z</time>
      </trkpt>
      <trkpt lat="43.35262" lon="-1.55355">
        <ele>18.88</ele>
        <time>2014-09-20T06:39:06Z</time>
      </trkpt>
      <trkpt lat="43.35253" lon="-1.55328">
        <ele>18.4</ele>
        <time>2014-09-20T06:39:10Z</time>
      </trkpt>
      <trkpt lat="43.35219" lon="-1.55261">
        <ele>19.84</ele>
        <time>2014-09-20T06:39:22Z</time>
      </trkpt>
      <trkpt lat="43.35188" lon="-1.55245">
        <ele>18.88</ele>
        <time>2014-09-20T06:39:29Z</time>
      </trkpt>
      <trkpt lat="43.35096" lon="-1.55261">
        <ele>19.36</ele>
        <time>2014-09-20T06:39:47Z</time>
      </trkpt>
      <trkpt lat="43.34984" lon="-1.55256">
        <ele>19.36</ele>
        <time>2014-09-20T06:40:08Z</time>
      </trkpt>
      <trkpt lat="43.34979" lon="-1.55255">
        <ele>18.88</ele>
        <time>2014-09-20T06:40:09Z</time>
      </trkpt>
      <trkpt lat="43.34893" lon="-1.55234">
        <ele>19.36</ele>
        <time>2014-09-20T06:40:25Z</time>
      </trkpt>
      <trkpt lat="43.34872" lon="-1.55231">
        <ele>21.77</ele>
        <time>2014-09-20T06:40:31Z</time>
      </trkpt>
      <trkpt lat="43.34864" lon="-1.5523">
        <ele>23.21</ele>
        <time>2014-09-20T06:40:35Z</time>
      </trkpt>
      <trkpt lat="43.3486" lon="-1.55214">
        <ele>23.21</ele>
        <time>2014-09-20T06:40:40Z</time>
      </trkpt>
      <trkpt lat="43.34867" lon="-1.55175">
        <ele>22.73</ele>
        <time>2014-09-20T06:40:47Z</time>
      </trkpt>
      <trkpt lat="43.34899" lon="-1.55138">
        <ele>22.25</ele>
        <time>2014-09-20T06:40:56Z</time>
      </trkpt>
      <trkpt lat="43.34896" lon="-1.55124">
        <ele>24.17</ele>
        <time>2014-09-20T06:41:03Z</time>
      </trkpt>
      <trkpt lat="43.34881" lon="-1.55105">
        <ele>27.05</ele>
        <time>2014-09-20T06:41:16Z</time>
      </trkpt>
      <trkpt lat="43.34876" lon="-1.551">
        <ele>28.02</ele>
        <time>2014-09-20T06:41:21Z</time>
      </trkpt>
      <trkpt lat="43.34878" lon="-1.55091">
        <ele>28.98</ele>
        <time>2014-09-20T06:41:26Z</time>
      </trkpt>
      <trkpt lat="43.34899" lon="-1.55052">
        <ele>30.9</ele>
        <time>2014-09-20T06:41:43Z</time>
      </trkpt>
      <trkpt lat="43.34908" lon="-1.5502">
        <ele>32.34</ele>
        <time>2014-09-20T06:41:57Z</time>
      </trkpt>
      <trkpt lat="43.34911" lon="-1.54973">
        <ele>33.3</ele>
        <time>2014-09-20T06:42:11Z</time>
      </trkpt>
      <trkpt lat="43.349" lon="-1.54969">
        <ele>34.26</ele>
        <time>2014-09-20T06:42:16Z</time>
      </trkpt>
      <trkpt lat="43.34861" lon="-1.54977">
        <ele>37.63</ele>
        <time>2014-09-20T06:42:32Z</time>
      </trkpt>
      <trkpt lat="43.34834" lon="-1.54978">
        <ele>40.51</ele>
        <time>2014-09-20T06:42:45Z</time>
      </trkpt>
      <trkpt lat="43.3481" lon="-1.54989">
        <ele>43.88</ele>
        <time>2014-09-20T06:42:59Z</time>
      </trkpt>
      <trkpt lat="43.34786" lon="-1.54976">
        <ele>46.28</ele>
        <time>2014-09-20T06:43:13Z</time>
      </trkpt>
      <trkpt lat="43.34762" lon="-1.54963">
        <ele>49.65</ele>
        <time>2014-09-20T06:43:28Z</time>
      </trkpt>
      <trkpt lat="43.34742" lon="-1.5495">
        <ele>52.53</ele>
        <time>2014-09-20T06:43:42Z</time>
      </trkpt>
      <trkpt lat="43.34721" lon="-1.54931">
        <ele>55.41</ele>
        <time>2014-09-20T06:43:58Z</time>
      </trkpt>
      <trkpt lat="43.34702" lon="-1.54915">
        <ele>58.78</ele>
        <time>2014-09-20T06:44:13Z</time>
      </trkpt>
      <trkpt lat="43.3468" lon="-1.54894">
        <ele>60.7</ele>
        <time>2014-09-20T06:44:29Z</time>
      </trkpt>
      <trkpt lat="43.34647" lon="-1.54865">
        <ele>63.58</ele>
        <time>2014-09-20T06:44:47Z</time>
      </trkpt>
      <trkpt lat="43.34617" lon="-1.54839">
        <ele>65.99</ele>
        <time>2014-09-20T06:45:02Z</time>
      </trkpt>
      <trkpt lat="43.3459" lon="-1.54809">
        <ele>65.51</ele>
        <time>2014-09-20T06:45:14Z</time>
      </trkpt>
      <trkpt lat="43.34567" lon="-1.54795">
        <ele>63.58</ele>
        <time>2014-09-20T06:45:19Z</time>
      </trkpt>
      <trkpt lat="43.34547" lon="-1.54786">
        <ele>60.7</ele>
        <time>2014-09-20T06:45:22Z</time>
      </trkpt>
      <trkpt lat="43.34525" lon="-1.54769">
        <ele>58.3</ele>
        <time>2014-09-20T06:45:25Z</time>
      </trkpt>
      <trkpt lat="43.3452" lon="-1.5476">
        <ele>57.82</ele>
        <time>2014-09-20T06:45:26Z</time>
      </trkpt>
      <trkpt lat="43.34505" lon="-1.5472">
        <ele>59.26</ele>
        <time>2014-09-20T06:45:31Z</time>
      </trkpt>
      <trkpt lat="43.34494" lon="-1.54685">
        <ele>61.18</ele>
        <time>2014-09-20T06:45:37Z</time>
      </trkpt>
      <trkpt lat="43.34458" lon="-1.54618">
        <ele>64.55</ele>
        <time>2014-09-20T06:45:52Z</time>
      </trkpt>
      <trkpt lat="43.34424" lon="-1.54585">
        <ele>62.62</ele>
        <time>2014-09-20T06:46:03Z</time>
      </trkpt>
      <trkpt lat="43.34413" lon="-1.54577">
        <ele>62.62</ele>
        <time>2014-09-20T06:46:06Z</time>
      </trkpt>
      <trkpt lat="43.34403" lon="-1.54567">
        <ele>60.7</ele>
        <time>2014-09-20T06:46:09Z</time>
      </trkpt>
      <trkpt lat="43.34357" lon="-1.54534">
        <ele>56.86</ele>
        <time>2014-09-20T06:46:18Z</time>
      </trkpt>
      <trkpt lat="43.34352" lon="-1.5453">
        <ele>56.86</ele>
        <time>2014-09-20T06:46:19Z</time>
      </trkpt>
      <trkpt lat="43.34314" lon="-1.54492">
        <ele>58.78</ele>
        <time>2014-09-20T06:46:29Z</time>
      </trkpt>
      <trkpt lat="43.34309" lon="-1.54483">
        <ele>59.74</ele>
        <time>2014-09-20T06:46:39Z</time>
      </trkpt>
      <trkpt lat="43.34304" lon="-1.54473">
        <ele>60.7</ele>
        <time>2014-09-20T06:46:55Z</time>
      </trkpt>
      <trkpt lat="43.34299" lon="-1.54459">
        <ele>62.62</ele>
        <time>2014-09-20T06:47:05Z</time>
      </trkpt>
      <trkpt lat="43.343" lon="-1.54446">
        <ele>63.58</ele>
        <time>2014-09-20T06:47:18Z</time>
      </trkpt>
      <trkpt lat="43.34301" lon="-1.54437">
        <ele>65.51</ele>
        <time>2014-09-20T06:47:31Z</time>
      </trkpt>
      <trkpt lat="43.34315" lon="-1.54412">
        <ele>68.39</ele>
        <time>2014-09-20T06:47:44Z</time>
      </trkpt>
      <trkpt lat="43.3432" lon="-1.54406">
        <ele>69.35</ele>
        <time>2014-09-20T06:47:48Z</time>
      </trkpt>
      <trkpt lat="43.34322" lon="-1.54403">
        <ele>69.83</ele>
        <time>2014-09-20T06:47:50Z</time>
      </trkpt>
      <trkpt lat="43.34332" lon="-1.54382">
        <ele>72.24</ele>
        <time>2014-09-20T06:48:01Z</time>
      </trkpt>
      <trkpt lat="43.34335" lon="-1.54372">
        <ele>73.68</ele>
        <time>2014-09-20T06:48:07Z</time>
      </trkpt>
      <trkpt lat="43.34347" lon="-1.54347">
        <ele>77.52</ele>
        <time>2014-09-20T06:48:20Z</time>
      </trkpt>
      <trkpt lat="43.3435" lon="-1.54325">
        <ele>79.45</ele>
        <time>2014-09-20T06:48:30Z</time>
      </trkpt>
      <trkpt lat="43.34344" lon="-1.543">
        <ele>81.37</ele>
        <time>2014-09-20T06:48:42Z</time>
      </trkpt>
      <trkpt lat="43.34343" lon="-1.54298">
        <ele>81.85</ele>
        <time>2014-09-20T06:48:43Z</time>
      </trkpt>
      <trkpt lat="43.34323" lon="-1.54265">
        <ele>81.85</ele>
        <time>2014-09-20T06:48:57Z</time>
      </trkpt>
      <trkpt lat="43.34294" lon="-1.54239">
        <ele>81.85</ele>
        <time>2014-09-20T06:49:09Z</time>
      </trkpt>
      <trkpt lat="43.34284" lon="-1.54229">
        <ele>82.33</ele>
        <time>2014-09-20T06:49:14Z</time>
      </trkpt>
      <trkpt lat="43.34271" lon="-1.54192">
        <ele>80.41</ele>
        <time>2014-09-20T06:49:26Z</time>
      </trkpt>
      <trkpt lat="43.3427" lon="-1.54156">
        <ele>79.45</ele>
        <time>2014-09-20T06:49:35Z</time>
      </trkpt>
      <trkpt lat="43.34255" lon="-1.54135">
        <ele>77.52</ele>
        <time>2014-09-20T06:49:41Z</time>
      </trkpt>
      <trkpt lat="43.34238" lon="-1.54134">
        <ele>76.08</ele>
        <time>2014-09-20T06:49:45Z</time>
      </trkpt>
      <trkpt lat="43.34204" lon="-1.54136">
        <ele>71.76</ele>
        <time>2014-09-20T06:49:54Z</time>
      </trkpt>
      <trkpt lat="43.34194" lon="-1.54135">
        <ele>70.79</ele>
        <time>2014-09-20T06:49:56Z</time>
      </trkpt>
      <trkpt lat="43.34182" lon="-1.54132">
        <ele>69.83</ele>
        <time>2014-09-20T06:49:58Z</time>
      </trkpt>
      <trkpt lat="43.34161" lon="-1.54111">
        <ele>70.79</ele>
        <time>2014-09-20T06:50:04Z</time>
      </trkpt>
      <trkpt lat="43.34155" lon="-1.54069">
        <ele>71.76</ele>
        <time>2014-09-20T06:50:17Z</time>
      </trkpt>
      <trkpt lat="43.34153" lon="-1.54054">
        <ele>71.76</ele>
        <time>2014-09-20T06:50:21Z</time>
      </trkpt>
      <trkpt lat="43.34153" lon="-1.54038">
        <ele>72.72</ele>
        <time>2014-09-20T06:50:26Z</time>
      </trkpt>
      <trkpt lat="43.34154" lon="-1.53996">
        <ele>74.64</ele>
        <time>2014-09-20T06:50:39Z</time>
      </trkpt>
      <trkpt lat="43.34169" lon="-1.53959">
        <ele>78</ele>
        <time>2014-09-20T06:50:52Z</time>
      </trkpt>
      <trkpt lat="43.3418" lon="-1.53916">
        <ele>78</ele>
        <time>2014-09-20T06:51:04Z</time>
      </trkpt>
      <trkpt lat="43.34194" lon="-1.53855">
        <ele>79.93</ele>
        <time>2014-09-20T06:51:19Z</time>
      </trkpt>
      <trkpt lat="43.34203" lon="-1.53822">
        <ele>79.93</ele>
        <time>2014-09-20T06:51:27Z</time>
      </trkpt>
      <trkpt lat="43.34204" lon="-1.53783">
        <ele>75.12</ele>
        <time>2014-09-20T06:51:32Z</time>
      </trkpt>
      <trkpt lat="43.34194" lon="-1.53742">
        <ele>70.79</ele>
        <time>2014-09-20T06:51:36Z</time>
      </trkpt>
      <trkpt lat="43.34187" lon="-1.53734">
        <ele>70.79</ele>
        <time>2014-09-20T06:51:37Z</time>
      </trkpt>
      <trkpt lat="43.34175" lon="-1.5372">
        <ele>70.79</ele>
        <time>2014-09-20T06:51:39Z</time>
      </trkpt>
      <trkpt lat="43.34169" lon="-1.53678">
        <ele>71.76</ele>
        <time>2014-09-20T06:51:44Z</time>
      </trkpt>
      <trkpt lat="43.34178" lon="-1.53664">
        <ele>74.16</ele>
        <time>2014-09-20T06:51:48Z</time>
      </trkpt>
      <trkpt lat="43.34189" lon="-1.53651">
        <ele>76.56</ele>
        <time>2014-09-20T06:51:53Z</time>
      </trkpt>
      <trkpt lat="43.34186" lon="-1.53634">
        <ele>78</ele>
        <time>2014-09-20T06:51:59Z</time>
      </trkpt>
      <trkpt lat="43.34168" lon="-1.53616">
        <ele>81.37</ele>
        <time>2014-09-20T06:52:09Z</time>
      </trkpt>
      <trkpt lat="43.34143" lon="-1.53578">
        <ele>82.33</ele>
        <time>2014-09-20T06:52:22Z</time>
      </trkpt>
      <trkpt lat="43.34101" lon="-1.5351">
        <ele>80.89</ele>
        <time>2014-09-20T06:52:36Z</time>
      </trkpt>
      <trkpt lat="43.34041" lon="-1.5343">
        <ele>78.48</ele>
        <time>2014-09-20T06:52:49Z</time>
      </trkpt>
      <trkpt lat="43.3401" lon="-1.53371">
        <ele>79.93</ele>
        <time>2014-09-20T06:52:59Z</time>
      </trkpt>
      <trkpt lat="43.34002" lon="-1.53349">
        <ele>81.85</ele>
        <time>2014-09-20T06:53:03Z</time>
      </trkpt>
      <trkpt lat="43.33974" lon="-1.5327">
        <ele>83.77</ele>
        <time>2014-09-20T06:53:19Z</time>
      </trkpt>
      <trkpt lat="43.33948" lon="-1.53189">
        <ele>86.18</ele>
        <time>2014-09-20T06:53:36Z</time>
      </trkpt>
      <trkpt lat="43.3393" lon="-1.53166">
        <ele>84.73</ele>
        <time>2014-09-20T06:53:47Z</time>
      </trkpt>
      <trkpt lat="43.3393" lon="-1.53166">
        <ele>84.25</ele>
        <time>2014-09-20T06:54:05Z</time>
      </trkpt>
      <trkpt lat="43.33929" lon="-1.53165">
        <ele>84.73</ele>
        <time>2014-09-20T06:54:20Z</time>
      </trkpt>
      <trkpt lat="43.33929" lon="-1.53165">
        <ele>84.25</ele>
        <time>2014-09-20T06:54:22Z</time>
      </trkpt>
      <trkpt lat="43.33916" lon="-1.53173">
        <ele>80.89</ele>
        <time>2014-09-20T06:54:27Z</time>
      </trkpt>
      <trkpt lat="43.33896" lon="-1.53187">
        <ele>77.52</ele>
        <time>2014-09-20T06:54:31Z</time>
      </trkpt>
      <trkpt lat="43.33891" lon="-1.53191">
        <ele>76.56</ele>
        <time>2014-09-20T06:54:32Z</time>
      </trkpt>
      <trkpt lat="43.3387" lon="-1.532">
        <ele>71.27</ele>
        <time>2014-09-20T06:54:35Z</time>
      </trkpt>
      <trkpt lat="43.33852" lon="-1.53202">
        <ele>68.39</ele>
        <time>2014-09-20T06:54:37Z</time>
      </trkpt>
      <trkpt lat="43.33832" lon="-1.53204">
        <ele>65.51</ele>
        <time>2014-09-20T06:54:39Z</time>
      </trkpt>
      <trkpt lat="43.33797" lon="-1.53224">
        <ele>58.3</ele>
        <time>2014-09-20T06:54:43Z</time>
      </trkpt>
      <trkpt lat="43.33783" lon="-1.53268">
        <ele>54.93</ele>
        <time>2014-09-20T06:54:47Z</time>
      </trkpt>
      <trkpt lat="43.33786" lon="-1.53303">
        <ele>53.01</ele>
        <time>2014-09-20T06:54:50Z</time>
      </trkpt>
      <trkpt lat="43.33775" lon="-1.53349">
        <ele>47.24</ele>
        <time>2014-09-20T06:54:55Z</time>
      </trkpt>
      <trkpt lat="43.33762" lon="-1.53369">
        <ele>43.88</ele>
        <time>2014-09-20T06:54:57Z</time>
      </trkpt>
      <trkpt lat="43.33751" lon="-1.53397">
        <ele>40.51</ele>
        <time>2014-09-20T06:54:59Z</time>
      </trkpt>
      <trkpt lat="43.33739" lon="-1.53442">
        <ele>36.19</ele>
        <time>2014-09-20T06:55:02Z</time>
      </trkpt>
      <trkpt lat="43.33732" lon="-1.53522">
        <ele>32.34</ele>
        <time>2014-09-20T06:55:07Z</time>
      </trkpt>
      <trkpt lat="43.33731" lon="-1.53585">
        <ele>28.98</ele>
        <time>2014-09-20T06:55:11Z</time>
      </trkpt>
      <trkpt lat="43.33731" lon="-1.53667">
        <ele>25.61</ele>
        <time>2014-09-20T06:55:17Z</time>
      </trkpt>
      <trkpt lat="43.33711" lon="-1.53726">
        <ele>23.21</ele>
        <time>2014-09-20T06:55:22Z</time>
      </trkpt>
      <trkpt lat="43.33664" lon="-1.53776">
        <ele>23.69</ele>
        <time>2014-09-20T06:55:30Z</time>
      </trkpt>
      <trkpt lat="43.33654" lon="-1.53786">
        <ele>23.69</ele>
        <time>2014-09-20T06:55:32Z</time>
      </trkpt>
      <trkpt lat="43.33585" lon="-1.5384">
        <ele>24.65</ele>
        <time>2014-09-20T06:55:47Z</time>
      </trkpt>
      <trkpt lat="43.3357" lon="-1.53844">
        <ele>25.13</ele>
        <time>2014-09-20T06:55:50Z</time>
      </trkpt>
      <trkpt lat="43.33545" lon="-1.53846">
        <ele>25.13</ele>
        <time>2014-09-20T06:55:55Z</time>
      </trkpt>
      <trkpt lat="43.33507" lon="-1.53823">
        <ele>28.5</ele>
        <time>2014-09-20T06:56:06Z</time>
      </trkpt>
      <trkpt lat="43.33493" lon="-1.53818">
        <ele>31.86</ele>
        <time>2014-09-20T06:56:13Z</time>
      </trkpt>
      <trkpt lat="43.33466" lon="-1.53823">
        <ele>34.74</ele>
        <time>2014-09-20T06:56:27Z</time>
      </trkpt>
      <trkpt lat="43.33442" lon="-1.53835">
        <ele>34.26</ele>
        <time>2014-09-20T06:56:36Z</time>
      </trkpt>
      <trkpt lat="43.33423" lon="-1.53852">
        <ele>30.42</ele>
        <time>2014-09-20T06:56:40Z</time>
      </trkpt>
      <trkpt lat="43.33384" lon="-1.53872">
        <ele>30.9</ele>
        <time>2014-09-20T06:56:47Z</time>
      </trkpt>
      <trkpt lat="43.33323" lon="-1.53867">
        <ele>28.5</ele>
        <time>2014-09-20T06:56:57Z</time>
      </trkpt>
      <trkpt lat="43.33235" lon="-1.5387">
        <ele>28.02</ele>
        <time>2014-09-20T06:57:12Z</time>
      </trkpt>
      <trkpt lat="43.33192" lon="-1.53877">
        <ele>26.09</ele>
        <time>2014-09-20T06:57:20Z</time>
      </trkpt>
      <trkpt lat="43.3318" lon="-1.53877">
        <ele>27.53</ele>
        <time>2014-09-20T06:57:23Z</time>
      </trkpt>
      <trkpt lat="43.33174" lon="-1.53893">
        <ele>27.05</ele>
        <time>2014-09-20T06:57:27Z</time>
      </trkpt>
      <trkpt lat="43.33176" lon="-1.53937">
        <ele>28.02</ele>
        <time>2014-09-20T06:57:34Z</time>
      </trkpt>
      <trkpt lat="43.33174" lon="-1.53969">
        <ele>27.53</ele>
        <time>2014-09-20T06:57:39Z</time>
      </trkpt>
      <trkpt lat="43.33164" lon="-1.54082">
        <ele>25.13</ele>
        <time>2014-09-20T06:57:54Z</time>
      </trkpt>
      <trkpt lat="43.33112" lon="-1.54178">
        <ele>23.69</ele>
        <time>2014-09-20T06:58:09Z</time>
      </trkpt>
      <trkpt lat="43.33092" lon="-1.54207">
        <ele>23.21</ele>
        <time>2014-09-20T06:58:14Z</time>
      </trkpt>
      <trkpt lat="43.33076" lon="-1.54242">
        <ele>23.21</ele>
        <time>2014-09-20T06:58:19Z</time>
      </trkpt>
      <trkpt lat="43.33072" lon="-1.54257">
        <ele>23.21</ele>
        <time>2014-09-20T06:58:21Z</time>
      </trkpt>
      <trkpt lat="43.33065" lon="-1.54278">
        <ele>23.69</ele>
        <time>2014-09-20T06:58:24Z</time>
      </trkpt>
      <trkpt lat="43.33051" lon="-1.54299">
        <ele>23.21</ele>
        <time>2014-09-20T06:58:28Z</time>
      </trkpt>
      <trkpt lat="43.32982" lon="-1.54337">
        <ele>25.13</ele>
        <time>2014-09-20T06:58:45Z</time>
      </trkpt>
      <trkpt lat="43.32954" lon="-1.54336">
        <ele>25.61</ele>
        <time>2014-09-20T06:58:55Z</time>
      </trkpt>
      <trkpt lat="43.32924" lon="-1.54322">
        <ele>27.05</ele>
        <time>2014-09-20T06:59:04Z</time>
      </trkpt>
      <trkpt lat="43.32898" lon="-1.54341">
        <ele>27.53</ele>
        <time>2014-09-20T06:59:12Z</time>
      </trkpt>
      <trkpt lat="43.32857" lon="-1.54382">
        <ele>28.02</ele>
        <time>2014-09-20T06:59:24Z</time>
      </trkpt>
      <trkpt lat="43.32857" lon="-1.54416">
        <ele>28.02</ele>
        <time>2014-09-20T06:59:31Z</time>
      </trkpt>
      <trkpt lat="43.32894" lon="-1.54471">
        <ele>29.94</ele>
        <time>2014-09-20T06:59:46Z</time>
      </trkpt>
      <trkpt lat="43.32896" lon="-1.54473">
        <ele>30.42</ele>
        <time>2014-09-20T06:59:47Z</time>
      </trkpt>
      <trkpt lat="43.32945" lon="-1.54457">
        <ele>29.94</ele>
        <time>2014-09-20T07:00:00Z</time>
      </trkpt>
      <trkpt lat="43.3301" lon="-1.54431">
        <ele>29.46</ele>
        <time>2014-09-20T07:00:15Z</time>
      </trkpt>
      <trkpt lat="43.33045" lon="-1.5444">
        <ele>30.42</ele>
        <time>2014-09-20T07:00:22Z</time>
      </trkpt>
      <trkpt lat="43.33054" lon="-1.54445">
        <ele>30.42</ele>
        <time>2014-09-20T07:00:24Z</time>
      </trkpt>
      <trkpt lat="43.33079" lon="-1.54498">
        <ele>32.34</ele>
        <time>2014-09-20T07:00:35Z</time>
      </trkpt>
      <trkpt lat="43.33065" lon="-1.54569">
        <ele>35.23</ele>
        <time>2014-09-20T07:00:51Z</time>
      </trkpt>
      <trkpt lat="43.33042" lon="-1.54599">
        <ele>37.63</ele>
        <time>2014-09-20T07:01:03Z</time>
      </trkpt>
      <trkpt lat="43.33025" lon="-1.54626">
        <ele>40.51</ele>
        <time>2014-09-20T07:01:15Z</time>
      </trkpt>
      <trkpt lat="43.33012" lon="-1.54653">
        <ele>42.92</ele>
        <time>2014-09-20T07:01:27Z</time>
      </trkpt>
      <trkpt lat="43.32999" lon="-1.54678">
        <ele>45.32</ele>
        <time>2014-09-20T07:01:36Z</time>
      </trkpt>
      <trkpt lat="43.32987" lon="-1.547">
        <ele>48.2</ele>
        <time>2014-09-20T07:01:47Z</time>
      </trkpt>
      <trkpt lat="43.32981" lon="-1.54711">
        <ele>50.61</ele>
        <time>2014-09-20T07:01:54Z</time>
      </trkpt>
      <trkpt lat="43.32977" lon="-1.54714">
        <ele>51.57</ele>
        <time>2014-09-20T07:01:57Z</time>
      </trkpt>
      <trkpt lat="43.32973" lon="-1.54718">
        <ele>52.05</ele>
        <time>2014-09-20T07:02:00Z</time>
      </trkpt>
      <trkpt lat="43.32964" lon="-1.54726">
        <ele>53.49</ele>
        <time>2014-09-20T07:02:06Z</time>
      </trkpt>
      <trkpt lat="43.32948" lon="-1.54742">
        <ele>56.37</ele>
        <time>2014-09-20T07:02:17Z</time>
      </trkpt>
      <trkpt lat="43.32932" lon="-1.54756">
        <ele>59.26</ele>
        <time>2014-09-20T07:02:29Z</time>
      </trkpt>
      <trkpt lat="43.32925" lon="-1.5476">
        <ele>60.7</ele>
        <time>2014-09-20T07:02:34Z</time>
      </trkpt>
      <trkpt lat="43.32912" lon="-1.54769">
        <ele>64.07</ele>
        <time>2014-09-20T07:02:47Z</time>
      </trkpt>
      <trkpt lat="43.32897" lon="-1.54771">
        <ele>66.95</ele>
        <time>2014-09-20T07:02:58Z</time>
      </trkpt>
      <trkpt lat="43.3289" lon="-1.54772">
        <ele>67.43</ele>
        <time>2014-09-20T07:03:04Z</time>
      </trkpt>
      <trkpt lat="43.32872" lon="-1.54766">
        <ele>70.79</ele>
        <time>2014-09-20T07:03:18Z</time>
      </trkpt>
      <trkpt lat="43.32875" lon="-1.54743">
        <ele>74.16</ele>
        <time>2014-09-20T07:03:32Z</time>
      </trkpt>
      <trkpt lat="43.32883" lon="-1.54726">
        <ele>75.12</ele>
        <time>2014-09-20T07:03:42Z</time>
      </trkpt>
      <trkpt lat="43.32873" lon="-1.5472">
        <ele>76.56</ele>
        <time>2014-09-20T07:03:51Z</time>
      </trkpt>
      <trkpt lat="43.32856" lon="-1.54739">
        <ele>78.97</ele>
        <time>2014-09-20T07:04:06Z</time>
      </trkpt>
      <trkpt lat="43.32843" lon="-1.54752">
        <ele>81.37</ele>
        <time>2014-09-20T07:04:19Z</time>
      </trkpt>
      <trkpt lat="43.32829" lon="-1.54766">
        <ele>84.73</ele>
        <time>2014-09-20T07:04:32Z</time>
      </trkpt>
      <trkpt lat="43.32827" lon="-1.54769">
        <ele>85.21</ele>
        <time>2014-09-20T07:04:34Z</time>
      </trkpt>
      <trkpt lat="43.32824" lon="-1.54775">
        <ele>86.18</ele>
        <time>2014-09-20T07:04:38Z</time>
      </trkpt>
      <trkpt lat="43.32811" lon="-1.548">
        <ele>90.02</ele>
        <time>2014-09-20T07:04:53Z</time>
      </trkpt>
      <trkpt lat="43.32808" lon="-1.5481">
        <ele>91.46</ele>
        <time>2014-09-20T07:04:58Z</time>
      </trkpt>
      <trkpt lat="43.32802" lon="-1.54832">
        <ele>94.35</ele>
        <time>2014-09-20T07:05:11Z</time>
      </trkpt>
      <trkpt lat="43.32801" lon="-1.54833">
        <ele>94.83</ele>
        <time>2014-09-20T07:05:12Z</time>
      </trkpt>
      <trkpt lat="43.32787" lon="-1.54856">
        <ele>98.19</ele>
        <time>2014-09-20T07:05:29Z</time>
      </trkpt>
      <trkpt lat="43.3278" lon="-1.54874">
        <ele>100.11</ele>
        <time>2014-09-20T07:05:41Z</time>
      </trkpt>
      <trkpt lat="43.32775" lon="-1.54901">
        <ele>103.48</ele>
        <time>2014-09-20T07:05:57Z</time>
      </trkpt>
      <trkpt lat="43.32773" lon="-1.54911">
        <ele>104.92</ele>
        <time>2014-09-20T07:06:04Z</time>
      </trkpt>
      <trkpt lat="43.32773" lon="-1.54918">
        <ele>105.4</ele>
        <time>2014-09-20T07:06:08Z</time>
      </trkpt>
      <trkpt lat="43.32772" lon="-1.5492">
        <ele>105.88</ele>
        <time>2014-09-20T07:06:10Z</time>
      </trkpt>
      <trkpt lat="43.32767" lon="-1.54943">
        <ele>109.73</ele>
        <time>2014-09-20T07:06:25Z</time>
      </trkpt>
      <trkpt lat="43.32766" lon="-1.54963">
        <ele>112.61</ele>
        <time>2014-09-20T07:06:39Z</time>
      </trkpt>
      <trkpt lat="43.32766" lon="-1.54971">
        <ele>113.09</ele>
        <time>2014-09-20T07:06:44Z</time>
      </trkpt>
      <trkpt lat="43.32771" lon="-1.54993">
        <ele>116.94</ele>
        <time>2014-09-20T07:06:59Z</time>
      </trkpt>
      <trkpt lat="43.32773" lon="-1.55011">
        <ele>118.86</ele>
        <time>2014-09-20T07:07:11Z</time>
      </trkpt>
      <trkpt lat="43.32773" lon="-1.55016">
        <ele>119.34</ele>
        <time>2014-09-20T07:07:15Z</time>
      </trkpt>
      <trkpt lat="43.32773" lon="-1.55046">
        <ele>123.19</ele>
        <time>2014-09-20T07:07:33Z</time>
      </trkpt>
      <trkpt lat="43.32771" lon="-1.55073">
        <ele>126.07</ele>
        <time>2014-09-20T07:07:49Z</time>
      </trkpt>
      <trkpt lat="43.32771" lon="-1.5508">
        <ele>127.03</ele>
        <time>2014-09-20T07:07:53Z</time>
      </trkpt>
      <trkpt lat="43.32768" lon="-1.55092">
        <ele>128.47</ele>
        <time>2014-09-20T07:08:00Z</time>
      </trkpt>
      <trkpt lat="43.32768" lon="-1.55098">
        <ele>128.47</ele>
        <time>2014-09-20T07:08:03Z</time>
      </trkpt>
      <trkpt lat="43.32759" lon="-1.5513">
        <ele>130.88</ele>
        <time>2014-09-20T07:08:20Z</time>
      </trkpt>
      <trkpt lat="43.32737" lon="-1.55159">
        <ele>133.28</ele>
        <time>2014-09-20T07:08:38Z</time>
      </trkpt>
      <trkpt lat="43.32719" lon="-1.55183">
        <ele>136.16</ele>
        <time>2014-09-20T07:08:55Z</time>
      </trkpt>
      <trkpt lat="43.32716" lon="-1.55188">
        <ele>137.13</ele>
        <time>2014-09-20T07:09:09Z</time>
      </trkpt>
      <trkpt lat="43.32716" lon="-1.55188">
        <ele>137.13</ele>
        <time>2014-09-20T07:09:28Z</time>
      </trkpt>
      <trkpt lat="43.32716" lon="-1.55188">
        <ele>136.64</ele>
        <time>2014-09-20T07:09:36Z</time>
      </trkpt>
      <trkpt lat="43.32706" lon="-1.55214">
        <ele>138.57</ele>
        <time>2014-09-20T07:09:50Z</time>
      </trkpt>
      <trkpt lat="43.32702" lon="-1.55237">
        <ele>141.45</ele>
        <time>2014-09-20T07:10:05Z</time>
      </trkpt>
      <trkpt lat="43.32702" lon="-1.55236">
        <ele>141.45</ele>
        <time>2014-09-20T07:10:24Z</time>
      </trkpt>
      <trkpt lat="43.32703" lon="-1.55239">
        <ele>141.45</ele>
        <time>2014-09-20T07:10:35Z</time>
      </trkpt>
      <trkpt lat="43.32703" lon="-1.55245">
        <ele>141.93</ele>
        <time>2014-09-20T07:10:58Z</time>
      </trkpt>
      <trkpt lat="43.32703" lon="-1.55255">
        <ele>142.89</ele>
        <time>2014-09-20T07:11:11Z</time>
      </trkpt>
      <trkpt lat="43.32704" lon="-1.55259">
        <ele>143.37</ele>
        <time>2014-09-20T07:11:24Z</time>
      </trkpt>
      <trkpt lat="43.32705" lon="-1.55267">
        <ele>143.85</ele>
        <time>2014-09-20T07:11:32Z</time>
      </trkpt>
      <trkpt lat="43.32711" lon="-1.55284">
        <ele>146.26</ele>
        <time>2014-09-20T07:11:45Z</time>
      </trkpt>
      <trkpt lat="43.32713" lon="-1.55287">
        <ele>146.26</ele>
        <time>2014-09-20T07:11:52Z</time>
      </trkpt>
      <trkpt lat="43.32714" lon="-1.55316">
        <ele>149.62</ele>
        <time>2014-09-20T07:12:05Z</time>
      </trkpt>
      <trkpt lat="43.32714" lon="-1.5533">
        <ele>150.1</ele>
        <time>2014-09-20T07:12:10Z</time>
      </trkpt>
      <trkpt lat="43.32713" lon="-1.55339">
        <ele>150.58</ele>
        <time>2014-09-20T07:12:14Z</time>
      </trkpt>
      <trkpt lat="43.32711" lon="-1.55364">
        <ele>154.43</ele>
        <time>2014-09-20T07:12:27Z</time>
      </trkpt>
      <trkpt lat="43.32709" lon="-1.55376">
        <ele>155.39</ele>
        <time>2014-09-20T07:12:34Z</time>
      </trkpt>
      <trkpt lat="43.32708" lon="-1.55382">
        <ele>156.35</ele>
        <time>2014-09-20T07:12:37Z</time>
      </trkpt>
      <trkpt lat="43.32702" lon="-1.55405">
        <ele>157.79</ele>
        <time>2014-09-20T07:12:50Z</time>
      </trkpt>
      <trkpt lat="43.32689" lon="-1.55436">
        <ele>160.2</ele>
        <time>2014-09-20T07:13:04Z</time>
      </trkpt>
      <trkpt lat="43.32676" lon="-1.55473">
        <ele>161.64</ele>
        <time>2014-09-20T07:13:19Z</time>
      </trkpt>
      <trkpt lat="43.32683" lon="-1.55518">
        <ele>162.12</ele>
        <time>2014-09-20T07:13:33Z</time>
      </trkpt>
      <trkpt lat="43.32693" lon="-1.55561">
        <ele>162.12</ele>
        <time>2014-09-20T07:13:44Z</time>
      </trkpt>
      <trkpt lat="43.32699" lon="-1.55605">
        <ele>161.16</ele>
        <time>2014-09-20T07:13:54Z</time>
      </trkpt>
      <trkpt lat="43.32699" lon="-1.55611">
        <ele>160.68</ele>
        <time>2014-09-20T07:13:55Z</time>
      </trkpt>
      <trkpt lat="43.32719" lon="-1.55643">
        <ele>159.24</ele>
        <time>2014-09-20T07:14:02Z</time>
      </trkpt>
      <trkpt lat="43.32745" lon="-1.55673">
        <ele>161.64</ele>
        <time>2014-09-20T07:14:15Z</time>
      </trkpt>
      <trkpt lat="43.32746" lon="-1.55675">
        <ele>162.12</ele>
        <time>2014-09-20T07:14:17Z</time>
      </trkpt>
      <trkpt lat="43.32747" lon="-1.5568">
        <ele>161.64</ele>
        <time>2014-09-20T07:14:19Z</time>
      </trkpt>
      <trkpt lat="43.32768" lon="-1.55729">
        <ele>162.12</ele>
        <time>2014-09-20T07:14:35Z</time>
      </trkpt>
      <trkpt lat="43.32784" lon="-1.55781">
        <ele>162.12</ele>
        <time>2014-09-20T07:14:49Z</time>
      </trkpt>
      <trkpt lat="43.32795" lon="-1.55821">
        <ele>164.52</ele>
        <time>2014-09-20T07:15:01Z</time>
      </trkpt>
      <trkpt lat="43.3281" lon="-1.55868">
        <ele>165.48</ele>
        <time>2014-09-20T07:15:14Z</time>
      </trkpt>
      <trkpt lat="43.3281" lon="-1.55921">
        <ele>167.41</ele>
        <time>2014-09-20T07:15:29Z</time>
      </trkpt>
      <trkpt lat="43.32815" lon="-1.55955">
        <ele>170.29</ele>
        <time>2014-09-20T07:15:42Z</time>
      </trkpt>
      <trkpt lat="43.32821" lon="-1.56003">
        <ele>171.25</ele>
        <time>2014-09-20T07:15:56Z</time>
      </trkpt>
      <trkpt lat="43.3282" lon="-1.56052">
        <ele>169.33</ele>
        <time>2014-09-20T07:16:06Z</time>
      </trkpt>
      <trkpt lat="43.32816" lon="-1.56071">
        <ele>169.81</ele>
        <time>2014-09-20T07:16:13Z</time>
      </trkpt>
      <trkpt lat="43.32813" lon="-1.56091">
        <ele>169.33</ele>
        <time>2014-09-20T07:16:25Z</time>
      </trkpt>
      <trkpt lat="43.32812" lon="-1.56092">
        <ele>169.33</ele>
        <time>2014-09-20T07:16:59Z</time>
      </trkpt>
      <trkpt lat="43.32811" lon="-1.56091">
        <ele>169.33</ele>
        <time>2014-09-20T07:17:39Z</time>
      </trkpt>
      <trkpt lat="43.32812" lon="-1.56092">
        <ele>169.81</ele>
        <time>2014-09-20T07:18:14Z</time>
      </trkpt>
      <trkpt lat="43.32812" lon="-1.56092">
        <ele>169.81</ele>
        <time>2014-09-20T07:18:54Z</time>
      </trkpt>
      <trkpt lat="43.32811" lon="-1.56093">
        <ele>169.33</ele>
        <time>2014-09-20T07:19:30Z</time>
      </trkpt>
      <trkpt lat="43.32811" lon="-1.56093">
        <ele>169.81</ele>
        <time>2014-09-20T07:19:57Z</time>
      </trkpt>
      <trkpt lat="43.32811" lon="-1.56093">
        <ele>169.81</ele>
        <time>2014-09-20T07:20:29Z</time>
      </trkpt>
      <trkpt lat="43.32812" lon="-1.56092">
        <ele>169.81</ele>
        <time>2014-09-20T07:20:59Z</time>
      </trkpt>
      <trkpt lat="43.3281" lon="-1.56092">
        <ele>169.33</ele>
        <time>2014-09-20T07:21:37Z</time>
      </trkpt>
      <trkpt lat="43.3281" lon="-1.56092">
        <ele>169.81</ele>
        <time>2014-09-20T07:22:08Z</time>
      </trkpt>
      <trkpt lat="43.32811" lon="-1.56091">
        <ele>169.33</ele>
        <time>2014-09-20T07:22:36Z</time>
      </trkpt>
      <trkpt lat="43.32811" lon="-1.5609">
        <ele>169.33</ele>
        <time>2014-09-20T07:23:09Z</time>
      </trkpt>
      <trkpt lat="43.3281" lon="-1.56092">
        <ele>169.33</ele>
        <time>2014-09-20T07:23:40Z</time>
      </trkpt>
      <trkpt lat="43.3281" lon="-1.56092">
        <ele>169.81</ele>
        <time>2014-09-20T07:23:48Z</time>
      </trkpt>
      <trkpt lat="43.32805" lon="-1.56097">
        <ele>170.29</ele>
        <time>2014-09-20T07:23:52Z</time>
      </trkpt>
      <trkpt lat="43.32798" lon="-1.56108">
        <ele>170.29</ele>
        <time>2014-09-20T07:23:56Z</time>
      </trkpt>
      <trkpt lat="43.32783" lon="-1.56143">
        <ele>171.25</ele>
        <time>2014-09-20T07:24:07Z</time>
      </trkpt>
      <trkpt lat="43.32757" lon="-1.56193">
        <ele>173.66</ele>
        <time>2014-09-20T07:24:24Z</time>
      </trkpt>
      <trkpt lat="43.32733" lon="-1.56241">
        <ele>175.58</ele>
        <time>2014-09-20T07:24:40Z</time>
      </trkpt>
      <trkpt lat="43.32716" lon="-1.56282">
        <ele>177.5</ele>
        <time>2014-09-20T07:24:54Z</time>
      </trkpt>
      <trkpt lat="43.3271" lon="-1.56315">
        <ele>180.87</ele>
        <time>2014-09-20T07:25:06Z</time>
      </trkpt>
      <trkpt lat="43.32699" lon="-1.56344">
        <ele>183.75</ele>
        <time>2014-09-20T07:25:19Z</time>
      </trkpt>
      <trkpt lat="43.32696" lon="-1.56366">
        <ele>187.11</ele>
        <time>2014-09-20T07:25:29Z</time>
      </trkpt>
      <trkpt lat="43.32696" lon="-1.56398">
        <ele>188.56</ele>
        <time>2014-09-20T07:25:42Z</time>
      </trkpt>
      <trkpt lat="43.32683" lon="-1.56433">
        <ele>187.59</ele>
        <time>2014-09-20T07:25:51Z</time>
      </trkpt>
      <trkpt lat="43.32663" lon="-1.56493">
        <ele>187.11</ele>
        <time>2014-09-20T07:26:02Z</time>
      </trkpt>
      <trkpt lat="43.32656" lon="-1.56516">
        <ele>190.48</ele>
        <time>2014-09-20T07:26:11Z</time>
      </trkpt>
      <trkpt lat="43.32652" lon="-1.56533">
        <ele>193.36</ele>
        <time>2014-09-20T07:26:21Z</time>
      </trkpt>
      <trkpt lat="43.32649" lon="-1.56543">
        <ele>194.32</ele>
        <time>2014-09-20T07:26:27Z</time>
      </trkpt>
      <trkpt lat="43.32645" lon="-1.56552">
        <ele>196.25</ele>
        <time>2014-09-20T07:26:33Z</time>
      </trkpt>
      <trkpt lat="43.32639" lon="-1.56566">
        <ele>197.69</ele>
        <time>2014-09-20T07:26:42Z</time>
      </trkpt>
      <trkpt lat="43.32633" lon="-1.56584">
        <ele>199.61</ele>
        <time>2014-09-20T07:26:53Z</time>
      </trkpt>
      <trkpt lat="43.32628" lon="-1.56592">
        <ele>201.05</ele>
        <time>2014-09-20T07:26:58Z</time>
      </trkpt>
      <trkpt lat="43.32624" lon="-1.56606">
        <ele>200.57</ele>
        <time>2014-09-20T07:27:04Z</time>
      </trkpt>
      <trkpt lat="43.32606" lon="-1.56642">
        <ele>201.53</ele>
        <time>2014-09-20T07:27:18Z</time>
      </trkpt>
      <trkpt lat="43.3259" lon="-1.56675">
        <ele>203.46</ele>
        <time>2014-09-20T07:27:32Z</time>
      </trkpt>
      <trkpt lat="43.32596" lon="-1.56707">
        <ele>206.34</ele>
        <time>2014-09-20T07:27:46Z</time>
      </trkpt>
      <trkpt lat="43.32605" lon="-1.56741">
        <ele>209.22</ele>
        <time>2014-09-20T07:28:01Z</time>
      </trkpt>
      <trkpt lat="43.32617" lon="-1.56779">
        <ele>211.15</ele>
        <time>2014-09-20T07:28:17Z</time>
      </trkpt>
      <trkpt lat="43.32627" lon="-1.56815">
        <ele>213.07</ele>
        <time>2014-09-20T07:28:30Z</time>
      </trkpt>
      <trkpt lat="43.32647" lon="-1.56867">
        <ele>214.99</ele>
        <time>2014-09-20T07:28:46Z</time>
      </trkpt>
      <trkpt lat="43.32654" lon="-1.56896">
        <ele>214.03</ele>
        <time>2014-09-20T07:28:51Z</time>
      </trkpt>
      <trkpt lat="43.3266" lon="-1.56913">
        <ele>214.03</ele>
        <time>2014-09-20T07:28:54Z</time>
      </trkpt>
      <trkpt lat="43.32669" lon="-1.56933">
        <ele>214.51</ele>
        <time>2014-09-20T07:28:58Z</time>
      </trkpt>
      <trkpt lat="43.32696" lon="-1.56977">
        <ele>214.51</ele>
        <time>2014-09-20T07:29:09Z</time>
      </trkpt>
      <trkpt lat="43.32701" lon="-1.56987">
        <ele>214.99</ele>
        <time>2014-09-20T07:29:11Z</time>
      </trkpt>
      <trkpt lat="43.32708" lon="-1.57009">
        <ele>215.47</ele>
        <time>2014-09-20T07:29:15Z</time>
      </trkpt>
      <trkpt lat="43.32718" lon="-1.57032">
        <ele>214.51</ele>
        <time>2014-09-20T07:29:19Z</time>
      </trkpt>
      <trkpt lat="43.32722" lon="-1.57053">
        <ele>213.07</ele>
        <time>2014-09-20T07:29:22Z</time>
      </trkpt>
      <trkpt lat="43.32725" lon="-1.57082">
        <ele>211.15</ele>
        <time>2014-09-20T07:29:28Z</time>
      </trkpt>
      <trkpt lat="43.32713" lon="-1.57108">
        <ele>211.63</ele>
        <time>2014-09-20T07:29:36Z</time>
      </trkpt>
      <trkpt lat="43.32712" lon="-1.57108">
        <ele>212.11</ele>
        <time>2014-09-20T07:29:37Z</time>
      </trkpt>
      <trkpt lat="43.32691" lon="-1.57125">
        <ele>213.55</ele>
        <time>2014-09-20T07:29:48Z</time>
      </trkpt>
      <trkpt lat="43.32675" lon="-1.57127">
        <ele>211.15</ele>
        <time>2014-09-20T07:29:55Z</time>
      </trkpt>
      <trkpt lat="43.32673" lon="-1.57139">
        <ele>210.19</ele>
        <time>2014-09-20T07:30:00Z</time>
      </trkpt>
      <trkpt lat="43.32702" lon="-1.57184">
        <ele>206.34</ele>
        <time>2014-09-20T07:30:09Z</time>
      </trkpt>
      <trkpt lat="43.32714" lon="-1.57221">
        <ele>203.46</ele>
        <time>2014-09-20T07:30:13Z</time>
      </trkpt>
      <trkpt lat="43.32727" lon="-1.57291">
        <ele>200.09</ele>
        <time>2014-09-20T07:30:19Z</time>
      </trkpt>
      <trkpt lat="43.32736" lon="-1.57315">
        <ele>196.73</ele>
        <time>2014-09-20T07:30:21Z</time>
      </trkpt>
      <trkpt lat="43.32775" lon="-1.5738">
        <ele>192.4</ele>
        <time>2014-09-20T07:30:27Z</time>
      </trkpt>
      <trkpt lat="43.32818" lon="-1.57426">
        <ele>188.08</ele>
        <time>2014-09-20T07:30:33Z</time>
      </trkpt>
      <trkpt lat="43.32836" lon="-1.57454">
        <ele>186.63</ele>
        <time>2014-09-20T07:30:36Z</time>
      </trkpt>
      <trkpt lat="43.3284" lon="-1.57465">
        <ele>186.15</ele>
        <time>2014-09-20T07:30:37Z</time>
      </trkpt>
      <trkpt lat="43.32851" lon="-1.57504">
        <ele>182.31</ele>
        <time>2014-09-20T07:30:40Z</time>
      </trkpt>
      <trkpt lat="43.32882" lon="-1.57541">
        <ele>178.94</ele>
        <time>2014-09-20T07:30:44Z</time>
      </trkpt>
      <trkpt lat="43.32934" lon="-1.57549">
        <ele>175.1</ele>
        <time>2014-09-20T07:30:49Z</time>
      </trkpt>
      <trkpt lat="43.32985" lon="-1.57555">
        <ele>171.25</ele>
        <time>2014-09-20T07:30:54Z</time>
      </trkpt>
      <trkpt lat="43.33004" lon="-1.57569">
        <ele>170.29</ele>
        <time>2014-09-20T07:30:56Z</time>
      </trkpt>
      <trkpt lat="43.33037" lon="-1.57599">
        <ele>167.41</ele>
        <time>2014-09-20T07:31:00Z</time>
      </trkpt>
      <trkpt lat="43.33068" lon="-1.57658">
        <ele>170.77</ele>
        <time>2014-09-20T07:31:07Z</time>
      </trkpt>
      <trkpt lat="43.33072" lon="-1.57664">
        <ele>171.25</ele>
        <time>2014-09-20T07:31:08Z</time>
      </trkpt>
      <trkpt lat="43.33086" lon="-1.57681">
        <ele>172.69</ele>
        <time>2014-09-20T07:31:12Z</time>
      </trkpt>
      <trkpt lat="43.33099" lon="-1.57699">
        <ele>175.58</ele>
        <time>2014-09-20T07:31:18Z</time>
      </trkpt>
      <trkpt lat="43.33106" lon="-1.57701">
        <ele>177.02</ele>
        <time>2014-09-20T07:31:21Z</time>
      </trkpt>
      <trkpt lat="43.33108" lon="-1.57701">
        <ele>177.5</ele>
        <time>2014-09-20T07:31:22Z</time>
      </trkpt>
      <trkpt lat="43.33139" lon="-1.57699">
        <ele>179.9</ele>
        <time>2014-09-20T07:31:36Z</time>
      </trkpt>
      <trkpt lat="43.3314" lon="-1.57699">
        <ele>180.38</ele>
        <time>2014-09-20T07:31:37Z</time>
      </trkpt>
      <trkpt lat="43.33165" lon="-1.57702">
        <ele>183.75</ele>
        <time>2014-09-20T07:31:52Z</time>
      </trkpt>
      <trkpt lat="43.33167" lon="-1.57703">
        <ele>183.75</ele>
        <time>2014-09-20T07:31:53Z</time>
      </trkpt>
      <trkpt lat="43.33186" lon="-1.57707">
        <ele>186.15</ele>
        <time>2014-09-20T07:32:07Z</time>
      </trkpt>
      <trkpt lat="43.33206" lon="-1.5771">
        <ele>189.04</ele>
        <time>2014-09-20T07:32:21Z</time>
      </trkpt>
      <trkpt lat="43.33219" lon="-1.57713">
        <ele>190.48</ele>
        <time>2014-09-20T07:32:29Z</time>
      </trkpt>
      <trkpt lat="43.33241" lon="-1.57696">
        <ele>192.88</ele>
        <time>2014-09-20T07:32:44Z</time>
      </trkpt>
      <trkpt lat="43.33258" lon="-1.57676">
        <ele>195.77</ele>
        <time>2014-09-20T07:32:58Z</time>
      </trkpt>
      <trkpt lat="43.33281" lon="-1.5766">
        <ele>198.65</ele>
        <time>2014-09-20T07:33:14Z</time>
      </trkpt>
      <trkpt lat="43.33307" lon="-1.57664">
        <ele>200.09</ele>
        <time>2014-09-20T07:33:29Z</time>
      </trkpt>
      <trkpt lat="43.33336" lon="-1.57695">
        <ele>200.09</ele>
        <time>2014-09-20T07:33:41Z</time>
      </trkpt>
      <trkpt lat="43.33365" lon="-1.5776">
        <ele>202.01</ele>
        <time>2014-09-20T07:33:56Z</time>
      </trkpt>
      <trkpt lat="43.33369" lon="-1.5781">
        <ele>202.01</ele>
        <time>2014-09-20T07:34:06Z</time>
      </trkpt>
      <trkpt lat="43.33383" lon="-1.5783">
        <ele>203.46</ele>
        <time>2014-09-20T07:34:12Z</time>
      </trkpt>
      <trkpt lat="43.3342" lon="-1.57831">
        <ele>207.3</ele>
        <time>2014-09-20T07:34:25Z</time>
      </trkpt>
      <trkpt lat="43.33447" lon="-1.57848">
        <ele>207.3</ele>
        <time>2014-09-20T07:34:34Z</time>
      </trkpt>
      <trkpt lat="43.33508" lon="-1.57902">
        <ele>204.9</ele>
        <time>2014-09-20T07:34:48Z</time>
      </trkpt>
      <trkpt lat="43.33532" lon="-1.57922">
        <ele>203.46</ele>
        <time>2014-09-20T07:34:52Z</time>
      </trkpt>
      <trkpt lat="43.33583" lon="-1.5794">
        <ele>202.01</ele>
        <time>2014-09-20T07:34:59Z</time>
      </trkpt>
      <trkpt lat="43.33643" lon="-1.57974">
        <ele>202.98</ele>
        <time>2014-09-20T07:35:09Z</time>
      </trkpt>
      <trkpt lat="43.33668" lon="-1.57995">
        <ele>203.46</ele>
        <time>2014-09-20T07:35:14Z</time>
      </trkpt>
      <trkpt lat="43.33678" lon="-1.58002">
        <ele>203.94</ele>
        <time>2014-09-20T07:35:16Z</time>
      </trkpt>
      <trkpt lat="43.33728" lon="-1.58026">
        <ele>205.38</ele>
        <time>2014-09-20T07:35:27Z</time>
      </trkpt>
      <trkpt lat="43.33749" lon="-1.5803">
        <ele>205.38</ele>
        <time>2014-09-20T07:35:31Z</time>
      </trkpt>
      <trkpt lat="43.33765" lon="-1.58027">
        <ele>205.38</ele>
        <time>2014-09-20T07:35:34Z</time>
      </trkpt>
      <trkpt lat="43.33825" lon="-1.57987">
        <ele>207.78</ele>
        <time>2014-09-20T07:35:49Z</time>
      </trkpt>
      <trkpt lat="43.33835" lon="-1.57977">
        <ele>207.78</ele>
        <time>2014-09-20T07:35:53Z</time>
      </trkpt>
      <trkpt lat="43.3383" lon="-1.57955">
        <ele>207.78</ele>
        <time>2014-09-20T07:35:58Z</time>
      </trkpt>
      <trkpt lat="43.33823" lon="-1.5794">
        <ele>206.82</ele>
        <time>2014-09-20T07:36:01Z</time>
      </trkpt>
      <trkpt lat="43.33813" lon="-1.57914">
        <ele>205.38</ele>
        <time>2014-09-20T07:36:06Z</time>
      </trkpt>
      <trkpt lat="43.33812" lon="-1.57886">
        <ele>202.49</ele>
        <time>2014-09-20T07:36:10Z</time>
      </trkpt>
      <trkpt lat="43.33811" lon="-1.57868">
        <ele>200.57</ele>
        <time>2014-09-20T07:36:12Z</time>
      </trkpt>
      <trkpt lat="43.33812" lon="-1.57818">
        <ele>195.77</ele>
        <time>2014-09-20T07:36:17Z</time>
      </trkpt>
      <trkpt lat="43.33813" lon="-1.57808">
        <ele>194.8</ele>
        <time>2014-09-20T07:36:18Z</time>
      </trkpt>
      <trkpt lat="43.33817" lon="-1.57792">
        <ele>194.32</ele>
        <time>2014-09-20T07:36:20Z</time>
      </trkpt>
      <trkpt lat="43.33826" lon="-1.57777">
        <ele>191.92</ele>
        <time>2014-09-20T07:36:23Z</time>
      </trkpt>
      <trkpt lat="43.33849" lon="-1.57769">
        <ele>188.56</ele>
        <time>2014-09-20T07:36:28Z</time>
      </trkpt>
      <trkpt lat="43.33873" lon="-1.57785">
        <ele>185.19</ele>
        <time>2014-09-20T07:36:32Z</time>
      </trkpt>
      <trkpt lat="43.33885" lon="-1.57798">
        <ele>182.79</ele>
        <time>2014-09-20T07:36:34Z</time>
      </trkpt>
      <trkpt lat="43.33898" lon="-1.578">
        <ele>182.79</ele>
        <time>2014-09-20T07:36:36Z</time>
      </trkpt>
      <trkpt lat="43.33922" lon="-1.57794">
        <ele>184.71</ele>
        <time>2014-09-20T07:36:40Z</time>
      </trkpt>
      <trkpt lat="43.33927" lon="-1.57794">
        <ele>185.19</ele>
        <time>2014-09-20T07:36:41Z</time>
      </trkpt>
      <trkpt lat="43.33972" lon="-1.57811">
        <ele>184.71</ele>
        <time>2014-09-20T07:36:49Z</time>
      </trkpt>
      <trkpt lat="43.33988" lon="-1.57826">
        <ele>183.27</ele>
        <time>2014-09-20T07:36:52Z</time>
      </trkpt>
      <trkpt lat="43.34014" lon="-1.57844">
        <ele>180.38</ele>
        <time>2014-09-20T07:36:56Z</time>
      </trkpt>
      <trkpt lat="43.34022" lon="-1.57846">
        <ele>178.94</ele>
        <time>2014-09-20T07:36:57Z</time>
      </trkpt>
      <trkpt lat="43.34048" lon="-1.5785">
        <ele>177.02</ele>
        <time>2014-09-20T07:37:00Z</time>
      </trkpt>
      <trkpt lat="43.34084" lon="-1.57847">
        <ele>174.62</ele>
        <time>2014-09-20T07:37:04Z</time>
      </trkpt>
      <trkpt lat="43.34116" lon="-1.57839">
        <ele>173.66</ele>
        <time>2014-09-20T07:37:08Z</time>
      </trkpt>
      <trkpt lat="43.34148" lon="-1.57836">
        <ele>171.73</ele>
        <time>2014-09-20T07:37:12Z</time>
      </trkpt>
      <trkpt lat="43.34177" lon="-1.57845">
        <ele>170.77</ele>
        <time>2014-09-20T07:37:16Z</time>
      </trkpt>
      <trkpt lat="43.34197" lon="-1.57863">
        <ele>169.81</ele>
        <time>2014-09-20T07:37:20Z</time>
      </trkpt>
      <trkpt lat="43.34202" lon="-1.57867">
        <ele>168.85</ele>
        <time>2014-09-20T07:37:21Z</time>
      </trkpt>
      <trkpt lat="43.3422" lon="-1.57879">
        <ele>168.37</ele>
        <time>2014-09-20T07:37:24Z</time>
      </trkpt>
      <trkpt lat="43.34248" lon="-1.57893">
        <ele>166.93</ele>
        <time>2014-09-20T07:37:28Z</time>
      </trkpt>
      <trkpt lat="43.34274" lon="-1.57916">
        <ele>165.48</ele>
        <time>2014-09-20T07:37:33Z</time>
      </trkpt>
      <trkpt lat="43.34287" lon="-1.5792">
        <ele>164.52</ele>
        <time>2014-09-20T07:37:35Z</time>
      </trkpt>
      <trkpt lat="43.3433" lon="-1.57915">
        <ele>160.68</ele>
        <time>2014-09-20T07:37:41Z</time>
      </trkpt>
      <trkpt lat="43.34351" lon="-1.57924">
        <ele>157.31</ele>
        <time>2014-09-20T07:37:45Z</time>
      </trkpt>
      <trkpt lat="43.34388" lon="-1.57946">
        <ele>152.99</ele>
        <time>2014-09-20T07:37:51Z</time>
      </trkpt>
      <trkpt lat="43.3441" lon="-1.5797">
        <ele>148.66</ele>
        <time>2014-09-20T07:37:55Z</time>
      </trkpt>
      <trkpt lat="43.34431" lon="-1.5799">
        <ele>145.3</ele>
        <time>2014-09-20T07:37:58Z</time>
      </trkpt>
      <trkpt lat="43.34472" lon="-1.58023">
        <ele>141.45</ele>
        <time>2014-09-20T07:38:03Z</time>
      </trkpt>
      <trkpt lat="43.34479" lon="-1.58029">
        <ele>141.93</ele>
        <time>2014-09-20T07:38:04Z</time>
      </trkpt>
      <trkpt lat="43.34512" lon="-1.58054">
        <ele>137.61</ele>
        <time>2014-09-20T07:38:09Z</time>
      </trkpt>
      <trkpt lat="43.34521" lon="-1.58056">
        <ele>137.13</ele>
        <time>2014-09-20T07:38:10Z</time>
      </trkpt>
      <trkpt lat="43.34546" lon="-1.58058">
        <ele>135.2</ele>
        <time>2014-09-20T07:38:13Z</time>
      </trkpt>
      <trkpt lat="43.34558" lon="-1.5806">
        <ele>134.24</ele>
        <time>2014-09-20T07:38:15Z</time>
      </trkpt>
      <trkpt lat="43.34578" lon="-1.58079">
        <ele>133.76</ele>
        <time>2014-09-20T07:38:23Z</time>
      </trkpt>
      <trkpt lat="43.34579" lon="-1.58082">
        <ele>133.76</ele>
        <time>2014-09-20T07:38:24Z</time>
      </trkpt>
      <trkpt lat="43.34576" lon="-1.58123">
        <ele>130.4</ele>
        <time>2014-09-20T07:38:33Z</time>
      </trkpt>
      <trkpt lat="43.34574" lon="-1.58128">
        <ele>128.95</ele>
        <time>2014-09-20T07:38:34Z</time>
      </trkpt>
      <trkpt lat="43.34557" lon="-1.58149">
        <ele>124.15</ele>
        <time>2014-09-20T07:38:38Z</time>
      </trkpt>
      <trkpt lat="43.34536" lon="-1.58177">
        <ele>119.82</ele>
        <time>2014-09-20T07:38:43Z</time>
      </trkpt>
      <trkpt lat="43.34525" lon="-1.58181">
        <ele>118.86</ele>
        <time>2014-09-20T07:38:45Z</time>
      </trkpt>
      <trkpt lat="43.34507" lon="-1.58199">
        <ele>115.5</ele>
        <time>2014-09-20T07:38:49Z</time>
      </trkpt>
      <trkpt lat="43.34505" lon="-1.58213">
        <ele>113.09</ele>
        <time>2014-09-20T07:38:51Z</time>
      </trkpt>
      <trkpt lat="43.34504" lon="-1.58228">
        <ele>110.21</ele>
        <time>2014-09-20T07:38:53Z</time>
      </trkpt>
      <trkpt lat="43.34512" lon="-1.58266">
        <ele>104.92</ele>
        <time>2014-09-20T07:38:56Z</time>
      </trkpt>
      <trkpt lat="43.34513" lon="-1.58277">
        <ele>101.56</ele>
        <time>2014-09-20T07:38:57Z</time>
      </trkpt>
      <trkpt lat="43.34516" lon="-1.58294">
        <ele>98.67</ele>
        <time>2014-09-20T07:38:58Z</time>
      </trkpt>
      <trkpt lat="43.34518" lon="-1.58311">
        <ele>96.75</ele>
        <time>2014-09-20T07:38:59Z</time>
      </trkpt>
      <trkpt lat="43.34522" lon="-1.58382">
        <ele>90.5</ele>
        <time>2014-09-20T07:39:04Z</time>
      </trkpt>
      <trkpt lat="43.34522" lon="-1.58405">
        <ele>89.06</ele>
        <time>2014-09-20T07:39:06Z</time>
      </trkpt>
      <trkpt lat="43.34522" lon="-1.58423">
        <ele>87.62</ele>
        <time>2014-09-20T07:39:08Z</time>
      </trkpt>
      <trkpt lat="43.34528" lon="-1.58464">
        <ele>84.73</ele>
        <time>2014-09-20T07:39:13Z</time>
      </trkpt>
      <trkpt lat="43.34525" lon="-1.58492">
        <ele>82.33</ele>
        <time>2014-09-20T07:39:20Z</time>
      </trkpt>
      <trkpt lat="43.34527" lon="-1.58524">
        <ele>82.33</ele>
        <time>2014-09-20T07:39:31Z</time>
      </trkpt>
      <trkpt lat="43.34531" lon="-1.58564">
        <ele>83.29</ele>
        <time>2014-09-20T07:39:42Z</time>
      </trkpt>
      <trkpt lat="43.34539" lon="-1.58581">
        <ele>82.33</ele>
        <time>2014-09-20T07:39:46Z</time>
      </trkpt>
      <trkpt lat="43.3455" lon="-1.58602">
        <ele>81.85</ele>
        <time>2014-09-20T07:39:50Z</time>
      </trkpt>
      <trkpt lat="43.34568" lon="-1.58648">
        <ele>82.33</ele>
        <time>2014-09-20T07:40:01Z</time>
      </trkpt>
      <trkpt lat="43.34573" lon="-1.58671">
        <ele>81.85</ele>
        <time>2014-09-20T07:40:06Z</time>
      </trkpt>
      <trkpt lat="43.34595" lon="-1.587">
        <ele>78.97</ele>
        <time>2014-09-20T07:40:13Z</time>
      </trkpt>
      <trkpt lat="43.34619" lon="-1.58708">
        <ele>76.08</ele>
        <time>2014-09-20T07:40:24Z</time>
      </trkpt>
      <trkpt lat="43.34633" lon="-1.5871">
        <ele>73.2</ele>
        <time>2014-09-20T07:40:29Z</time>
      </trkpt>
      <trkpt lat="43.34637" lon="-1.58711">
        <ele>73.2</ele>
        <time>2014-09-20T07:40:30Z</time>
      </trkpt>
      <trkpt lat="43.34643" lon="-1.58711">
        <ele>74.16</ele>
        <time>2014-09-20T07:40:32Z</time>
      </trkpt>
      <trkpt lat="43.34657" lon="-1.58703">
        <ele>76.56</ele>
        <time>2014-09-20T07:40:39Z</time>
      </trkpt>
      <trkpt lat="43.34664" lon="-1.58698">
        <ele>78.48</ele>
        <time>2014-09-20T07:40:44Z</time>
      </trkpt>
      <trkpt lat="43.34673" lon="-1.587">
        <ele>80.41</ele>
        <time>2014-09-20T07:40:49Z</time>
      </trkpt>
      <trkpt lat="43.34687" lon="-1.58713">
        <ele>79.45</ele>
        <time>2014-09-20T07:40:55Z</time>
      </trkpt>
      <trkpt lat="43.347" lon="-1.58712">
        <ele>78</ele>
        <time>2014-09-20T07:40:58Z</time>
      </trkpt>
      <trkpt lat="43.34717" lon="-1.58699">
        <ele>79.45</ele>
        <time>2014-09-20T07:41:03Z</time>
      </trkpt>
      <trkpt lat="43.34737" lon="-1.58695">
        <ele>81.85</ele>
        <time>2014-09-20T07:41:11Z</time>
      </trkpt>
      <trkpt lat="43.34778" lon="-1.58734">
        <ele>79.93</ele>
        <time>2014-09-20T07:41:25Z</time>
      </trkpt>
      <trkpt lat="43.34786" lon="-1.5874">
        <ele>79.45</ele>
        <time>2014-09-20T07:41:27Z</time>
      </trkpt>
      <trkpt lat="43.34796" lon="-1.58747">
        <ele>78.48</ele>
        <time>2014-09-20T07:41:29Z</time>
      </trkpt>
      <trkpt lat="43.34809" lon="-1.58758">
        <ele>78</ele>
        <time>2014-09-20T07:41:32Z</time>
      </trkpt>
      <trkpt lat="43.34832" lon="-1.58786">
        <ele>78.97</ele>
        <time>2014-09-20T07:41:39Z</time>
      </trkpt>
      <trkpt lat="43.34856" lon="-1.58798">
        <ele>78.97</ele>
        <time>2014-09-20T07:41:45Z</time>
      </trkpt>
      <trkpt lat="43.34876" lon="-1.58798">
        <ele>77.52</ele>
        <time>2014-09-20T07:41:49Z</time>
      </trkpt>
      <trkpt lat="43.34896" lon="-1.5881">
        <ele>75.6</ele>
        <time>2014-09-20T07:41:53Z</time>
      </trkpt>
      <trkpt lat="43.34912" lon="-1.58837">
        <ele>72.24</ele>
        <time>2014-09-20T07:41:57Z</time>
      </trkpt>
      <trkpt lat="43.34913" lon="-1.5885">
        <ele>73.2</ele>
        <time>2014-09-20T07:41:59Z</time>
      </trkpt>
      <trkpt lat="43.34914" lon="-1.58859">
        <ele>74.16</ele>
        <time>2014-09-20T07:42:01Z</time>
      </trkpt>
      <trkpt lat="43.34904" lon="-1.58875">
        <ele>72.72</ele>
        <time>2014-09-20T07:42:05Z</time>
      </trkpt>
      <trkpt lat="43.34878" lon="-1.58906">
        <ele>70.31</ele>
        <time>2014-09-20T07:42:11Z</time>
      </trkpt>
      <trkpt lat="43.3487" lon="-1.58921">
        <ele>69.35</ele>
        <time>2014-09-20T07:42:13Z</time>
      </trkpt>
      <trkpt lat="43.34867" lon="-1.58928">
        <ele>68.87</ele>
        <time>2014-09-20T07:42:14Z</time>
      </trkpt>
      <trkpt lat="43.34856" lon="-1.58963">
        <ele>66.95</ele>
        <time>2014-09-20T07:42:18Z</time>
      </trkpt>
      <trkpt lat="43.3485" lon="-1.58989">
        <ele>66.47</ele>
        <time>2014-09-20T07:42:21Z</time>
      </trkpt>
      <trkpt lat="43.34848" lon="-1.59018">
        <ele>65.99</ele>
        <time>2014-09-20T07:42:24Z</time>
      </trkpt>
      <trkpt lat="43.34848" lon="-1.59054">
        <ele>65.03</ele>
        <time>2014-09-20T07:42:28Z</time>
      </trkpt>
      <trkpt lat="43.34849" lon="-1.59085">
        <ele>65.51</ele>
        <time>2014-09-20T07:42:33Z</time>
      </trkpt>
      <trkpt lat="43.34851" lon="-1.59098">
        <ele>64.55</ele>
        <time>2014-09-20T07:42:38Z</time>
      </trkpt>
      <trkpt lat="43.34868" lon="-1.59134">
        <ele>65.03</ele>
        <time>2014-09-20T07:42:45Z</time>
      </trkpt>
      <trkpt lat="43.3487" lon="-1.59142">
        <ele>65.99</ele>
        <time>2014-09-20T07:42:47Z</time>
      </trkpt>
      <trkpt lat="43.34879" lon="-1.59179">
        <ele>66.95</ele>
        <time>2014-09-20T07:42:56Z</time>
      </trkpt>
      <trkpt lat="43.34879" lon="-1.59202">
        <ele>66.95</ele>
        <time>2014-09-20T07:43:00Z</time>
      </trkpt>
      <trkpt lat="43.34901" lon="-1.5925">
        <ele>67.91</ele>
        <time>2014-09-20T07:43:10Z</time>
      </trkpt>
      <trkpt lat="43.34898" lon="-1.59299">
        <ele>67.91</ele>
        <time>2014-09-20T07:43:19Z</time>
      </trkpt>
      <trkpt lat="43.34891" lon="-1.59331">
        <ele>65.99</ele>
        <time>2014-09-20T07:43:23Z</time>
      </trkpt>
      <trkpt lat="43.34885" lon="-1.59372">
        <ele>63.58</ele>
        <time>2014-09-20T07:43:27Z</time>
      </trkpt>
      <trkpt lat="43.34894" lon="-1.59436">
        <ele>63.58</ele>
        <time>2014-09-20T07:43:34Z</time>
      </trkpt>
      <trkpt lat="43.34907" lon="-1.59469">
        <ele>64.55</ele>
        <time>2014-09-20T07:43:39Z</time>
      </trkpt>
      <trkpt lat="43.34914" lon="-1.59478">
        <ele>65.03</ele>
        <time>2014-09-20T07:43:41Z</time>
      </trkpt>
      <trkpt lat="43.34931" lon="-1.59516">
        <ele>65.99</ele>
        <time>2014-09-20T07:43:48Z</time>
      </trkpt>
      <trkpt lat="43.34936" lon="-1.59537">
        <ele>67.43</ele>
        <time>2014-09-20T07:43:52Z</time>
      </trkpt>
      <trkpt lat="43.34944" lon="-1.59558">
        <ele>66.47</ele>
        <time>2014-09-20T07:43:56Z</time>
      </trkpt>
      <trkpt lat="43.34968" lon="-1.59592">
        <ele>66.47</ele>
        <time>2014-09-20T07:44:05Z</time>
      </trkpt>
      <trkpt lat="43.34975" lon="-1.59608">
        <ele>64.55</ele>
        <time>2014-09-20T07:44:08Z</time>
      </trkpt>
      <trkpt lat="43.34981" lon="-1.59616">
        <ele>63.58</ele>
        <time>2014-09-20T07:44:10Z</time>
      </trkpt>
      <trkpt lat="43.34996" lon="-1.59642">
        <ele>60.22</ele>
        <time>2014-09-20T07:44:15Z</time>
      </trkpt>
      <trkpt lat="43.35023" lon="-1.59702">
        <ele>56.37</ele>
        <time>2014-09-20T07:44:23Z</time>
      </trkpt>
      <trkpt lat="43.35029" lon="-1.5972">
        <ele>54.93</ele>
        <time>2014-09-20T07:44:25Z</time>
      </trkpt>
      <trkpt lat="43.3506" lon="-1.59764">
        <ele>52.53</ele>
        <time>2014-09-20T07:44:31Z</time>
      </trkpt>
      <trkpt lat="43.35078" lon="-1.59786">
        <ele>53.49</ele>
        <time>2014-09-20T07:44:35Z</time>
      </trkpt>
      <trkpt lat="43.35089" lon="-1.59799">
        <ele>53.49</ele>
        <time>2014-09-20T07:44:38Z</time>
      </trkpt>
      <trkpt lat="43.35101" lon="-1.59829">
        <ele>53.49</ele>
        <time>2014-09-20T07:44:43Z</time>
      </trkpt>
      <trkpt lat="43.35104" lon="-1.59853">
        <ele>54.45</ele>
        <time>2014-09-20T07:44:47Z</time>
      </trkpt>
      <trkpt lat="43.35102" lon="-1.59874">
        <ele>52.53</ele>
        <time>2014-09-20T07:44:50Z</time>
      </trkpt>
      <trkpt lat="43.35106" lon="-1.59905">
        <ele>52.05</ele>
        <time>2014-09-20T07:44:56Z</time>
      </trkpt>
      <trkpt lat="43.35118" lon="-1.5993">
        <ele>54.93</ele>
        <time>2014-09-20T07:45:03Z</time>
      </trkpt>
      <trkpt lat="43.35127" lon="-1.59943">
        <ele>55.89</ele>
        <time>2014-09-20T07:45:16Z</time>
      </trkpt>
      <trkpt lat="43.35127" lon="-1.59944">
        <ele>55.89</ele>
        <time>2014-09-20T07:45:19Z</time>
      </trkpt>
      <trkpt lat="43.35129" lon="-1.59974">
        <ele>53.01</ele>
        <time>2014-09-20T07:45:28Z</time>
      </trkpt>
      <trkpt lat="43.35129" lon="-1.59981">
        <ele>53.01</ele>
        <time>2014-09-20T07:45:29Z</time>
      </trkpt>
      <trkpt lat="43.35128" lon="-1.59988">
        <ele>53.01</ele>
        <time>2014-09-20T07:45:30Z</time>
      </trkpt>
      <trkpt lat="43.35123" lon="-1.60044">
        <ele>52.05</ele>
        <time>2014-09-20T07:45:43Z</time>
      </trkpt>
      <trkpt lat="43.35123" lon="-1.60048">
        <ele>51.57</ele>
        <time>2014-09-20T07:45:44Z</time>
      </trkpt>
      <trkpt lat="43.35123" lon="-1.60062">
        <ele>49.65</ele>
        <time>2014-09-20T07:45:48Z</time>
      </trkpt>
      <trkpt lat="43.35119" lon="-1.60073">
        <ele>49.16</ele>
        <time>2014-09-20T07:45:51Z</time>
      </trkpt>
      <trkpt lat="43.35129" lon="-1.60099">
        <ele>49.16</ele>
        <time>2014-09-20T07:45:59Z</time>
      </trkpt>
      <trkpt lat="43.35132" lon="-1.60112">
        <ele>48.68</ele>
        <time>2014-09-20T07:46:10Z</time>
      </trkpt>
      <trkpt lat="43.35132" lon="-1.60114">
        <ele>48.68</ele>
        <time>2014-09-20T07:46:13Z</time>
      </trkpt>
      <trkpt lat="43.35131" lon="-1.60116">
        <ele>48.68</ele>
        <time>2014-09-20T07:46:15Z</time>
      </trkpt>
      <trkpt lat="43.3513" lon="-1.60119">
        <ele>49.16</ele>
        <time>2014-09-20T07:46:22Z</time>
      </trkpt>
      <trkpt lat="43.35134" lon="-1.60135">
        <ele>49.16</ele>
        <time>2014-09-20T07:46:28Z</time>
      </trkpt>
      <trkpt lat="43.35122" lon="-1.60172">
        <ele>48.2</ele>
        <time>2014-09-20T07:46:38Z</time>
      </trkpt>
      <trkpt lat="43.3512" lon="-1.60176">
        <ele>47.72</ele>
        <time>2014-09-20T07:46:39Z</time>
      </trkpt>
      <trkpt lat="43.35107" lon="-1.60203">
        <ele>47.24</ele>
        <time>2014-09-20T07:46:47Z</time>
      </trkpt>
      <trkpt lat="43.35098" lon="-1.60217">
        <ele>45.8</ele>
        <time>2014-09-20T07:46:54Z</time>
      </trkpt>
      <trkpt lat="43.35079" lon="-1.60239">
        <ele>45.8</ele>
        <time>2014-09-20T07:47:04Z</time>
      </trkpt>
      <trkpt lat="43.35071" lon="-1.6028">
        <ele>45.8</ele>
        <time>2014-09-20T07:47:15Z</time>
      </trkpt>
      <trkpt lat="43.35076" lon="-1.60304">
        <ele>46.28</ele>
        <time>2014-09-20T07:47:21Z</time>
      </trkpt>
      <trkpt lat="43.35078" lon="-1.6031">
        <ele>47.24</ele>
        <time>2014-09-20T07:47:23Z</time>
      </trkpt>
      <trkpt lat="43.3508" lon="-1.60316">
        <ele>46.28</ele>
        <time>2014-09-20T07:47:25Z</time>
      </trkpt>
      <trkpt lat="43.35087" lon="-1.60331">
        <ele>44.36</ele>
        <time>2014-09-20T07:47:29Z</time>
      </trkpt>
      <trkpt lat="43.35099" lon="-1.6037">
        <ele>42.44</ele>
        <time>2014-09-20T07:47:39Z</time>
      </trkpt>
      <trkpt lat="43.35112" lon="-1.604">
        <ele>41.95</ele>
        <time>2014-09-20T07:47:49Z</time>
      </trkpt>
      <trkpt lat="43.35136" lon="-1.6043">
        <ele>41.95</ele>
        <time>2014-09-20T07:48:00Z</time>
      </trkpt>
      <trkpt lat="43.35144" lon="-1.60438">
        <ele>40.51</ele>
        <time>2014-09-20T07:48:02Z</time>
      </trkpt>
      <trkpt lat="43.35152" lon="-1.60445">
        <ele>39.55</ele>
        <time>2014-09-20T07:48:04Z</time>
      </trkpt>
      <trkpt lat="43.35175" lon="-1.60483">
        <ele>37.15</ele>
        <time>2014-09-20T07:48:13Z</time>
      </trkpt>
      <trkpt lat="43.35194" lon="-1.60518">
        <ele>36.19</ele>
        <time>2014-09-20T07:48:22Z</time>
      </trkpt>
      <trkpt lat="43.35197" lon="-1.60525">
        <ele>36.19</ele>
        <time>2014-09-20T07:48:24Z</time>
      </trkpt>
      <trkpt lat="43.35206" lon="-1.60555">
        <ele>34.26</ele>
        <time>2014-09-20T07:48:31Z</time>
      </trkpt>
      <trkpt lat="43.35224" lon="-1.60586">
        <ele>30.9</ele>
        <time>2014-09-20T07:48:42Z</time>
      </trkpt>
      <trkpt lat="43.35226" lon="-1.60596">
        <ele>30.9</ele>
        <time>2014-09-20T07:48:48Z</time>
      </trkpt>
      <trkpt lat="43.35229" lon="-1.60598">
        <ele>30.42</ele>
        <time>2014-09-20T07:48:52Z</time>
      </trkpt>
      <trkpt lat="43.35234" lon="-1.60604">
        <ele>30.9</ele>
        <time>2014-09-20T07:48:58Z</time>
      </trkpt>
      <trkpt lat="43.35235" lon="-1.60607">
        <ele>30.9</ele>
        <time>2014-09-20T07:49:04Z</time>
      </trkpt>
      <trkpt lat="43.35238" lon="-1.60615">
        <ele>30.9</ele>
        <time>2014-09-20T07:49:08Z</time>
      </trkpt>
      <trkpt lat="43.35273" lon="-1.60641">
        <ele>29.46</ele>
        <time>2014-09-20T07:49:20Z</time>
      </trkpt>
      <trkpt lat="43.35284" lon="-1.60649">
        <ele>28.5</ele>
        <time>2014-09-20T07:49:23Z</time>
      </trkpt>
      <trkpt lat="43.35305" lon="-1.60689">
        <ele>26.09</ele>
        <time>2014-09-20T07:49:33Z</time>
      </trkpt>
      <trkpt lat="43.35313" lon="-1.60701">
        <ele>26.09</ele>
        <time>2014-09-20T07:49:43Z</time>
      </trkpt>
      <trkpt lat="43.35316" lon="-1.60703">
        <ele>25.61</ele>
        <time>2014-09-20T07:49:56Z</time>
      </trkpt>
      <trkpt lat="43.35321" lon="-1.60712">
        <ele>25.13</ele>
        <time>2014-09-20T07:50:07Z</time>
      </trkpt>
      <trkpt lat="43.35321" lon="-1.60715">
        <ele>24.17</ele>
        <time>2014-09-20T07:50:19Z</time>
      </trkpt>
      <trkpt lat="43.35321" lon="-1.60714">
        <ele>24.65</ele>
        <time>2014-09-20T07:50:58Z</time>
      </trkpt>
      <trkpt lat="43.35324" lon="-1.60716">
        <ele>24.65</ele>
        <time>2014-09-20T07:51:25Z</time>
      </trkpt>
      <trkpt lat="43.35332" lon="-1.60725">
        <ele>25.13</ele>
        <time>2014-09-20T07:51:35Z</time>
      </trkpt>
      <trkpt lat="43.35334" lon="-1.60727">
        <ele>25.13</ele>
        <time>2014-09-20T07:51:37Z</time>
      </trkpt>
      <trkpt lat="43.35336" lon="-1.60728">
        <ele>25.61</ele>
        <time>2014-09-20T07:51:40Z</time>
      </trkpt>
      <trkpt lat="43.35341" lon="-1.60733">
        <ele>25.13</ele>
        <time>2014-09-20T07:51:46Z</time>
      </trkpt>
      <trkpt lat="43.35344" lon="-1.60738">
        <ele>24.65</ele>
        <time>2014-09-20T07:51:49Z</time>
      </trkpt>
      <trkpt lat="43.35352" lon="-1.60744">
        <ele>24.65</ele>
        <time>2014-09-20T07:52:00Z</time>
      </trkpt>
      <trkpt lat="43.35378" lon="-1.60746">
        <ele>22.73</ele>
        <time>2014-09-20T07:52:09Z</time>
      </trkpt>
      <trkpt lat="43.35392" lon="-1.60745">
        <ele>22.25</ele>
        <time>2014-09-20T07:52:13Z</time>
      </trkpt>
      <trkpt lat="43.35403" lon="-1.60752">
        <ele>20.81</ele>
        <time>2014-09-20T07:52:17Z</time>
      </trkpt>
      <trkpt lat="43.35413" lon="-1.6076">
        <ele>18.88</ele>
        <time>2014-09-20T07:52:20Z</time>
      </trkpt>
      <trkpt lat="43.3542" lon="-1.60765">
        <ele>17.92</ele>
        <time>2014-09-20T07:52:22Z</time>
      </trkpt>
      <trkpt lat="43.3545" lon="-1.60763">
        <ele>16.48</ele>
        <time>2014-09-20T07:52:32Z</time>
      </trkpt>
      <trkpt lat="43.35459" lon="-1.6076">
        <ele>16.48</ele>
        <time>2014-09-20T07:52:42Z</time>
      </trkpt>
      <trkpt lat="43.35459" lon="-1.60759">
        <ele>16</ele>
        <time>2014-09-20T07:52:54Z</time>
      </trkpt>
      <trkpt lat="43.35464" lon="-1.60766">
        <ele>15.04</ele>
        <time>2014-09-20T07:53:07Z</time>
      </trkpt>
      <trkpt lat="43.35463" lon="-1.60769">
        <ele>16</ele>
        <time>2014-09-20T07:53:12Z</time>
      </trkpt>
      <trkpt lat="43.35465" lon="-1.60775">
        <ele>16.48</ele>
        <time>2014-09-20T07:53:18Z</time>
      </trkpt>
      <trkpt lat="43.35467" lon="-1.60779">
        <ele>16.48</ele>
        <time>2014-09-20T07:53:21Z</time>
      </trkpt>
      <trkpt lat="43.3547" lon="-1.60794">
        <ele>18.4</ele>
        <time>2014-09-20T07:53:34Z</time>
      </trkpt>
      <trkpt lat="43.35471" lon="-1.608">
        <ele>18.88</ele>
        <time>2014-09-20T07:53:45Z</time>
      </trkpt>
      <trkpt lat="43.35472" lon="-1.60801">
        <ele>18.88</ele>
        <time>2014-09-20T07:54:10Z</time>
      </trkpt>
      <trkpt lat="43.35474" lon="-1.60813">
        <ele>19.84</ele>
        <time>2014-09-20T07:54:19Z</time>
      </trkpt>
      <trkpt lat="43.35472" lon="-1.60822">
        <ele>20.81</ele>
        <time>2014-09-20T07:54:28Z</time>
      </trkpt>
      <trkpt lat="43.35485" lon="-1.60847">
        <ele>21.77</ele>
        <time>2014-09-20T07:54:40Z</time>
      </trkpt>
      <trkpt lat="43.35497" lon="-1.60855">
        <ele>24.65</ele>
        <time>2014-09-20T07:54:53Z</time>
      </trkpt>
      <trkpt lat="43.355" lon="-1.60857">
        <ele>24.17</ele>
        <time>2014-09-20T07:54:56Z</time>
      </trkpt>
      <trkpt lat="43.35528" lon="-1.60874">
        <ele>25.13</ele>
        <time>2014-09-20T07:55:08Z</time>
      </trkpt>
      <trkpt lat="43.35531" lon="-1.60882">
        <ele>25.61</ele>
        <time>2014-09-20T07:55:17Z</time>
      </trkpt>
      <trkpt lat="43.35536" lon="-1.60889">
        <ele>25.61</ele>
        <time>2014-09-20T07:55:26Z</time>
      </trkpt>
      <trkpt lat="43.35552" lon="-1.6091">
        <ele>26.57</ele>
        <time>2014-09-20T07:55:35Z</time>
      </trkpt>
      <trkpt lat="43.3557" lon="-1.60933">
        <ele>25.61</ele>
        <time>2014-09-20T07:55:44Z</time>
      </trkpt>
      <trkpt lat="43.35577" lon="-1.60939">
        <ele>26.57</ele>
        <time>2014-09-20T07:55:49Z</time>
      </trkpt>
      <trkpt lat="43.35581" lon="-1.60932">
        <ele>26.57</ele>
        <time>2014-09-20T07:55:58Z</time>
      </trkpt>
      <trkpt lat="43.35575" lon="-1.6093">
        <ele>26.09</ele>
        <time>2014-09-20T07:56:19Z</time>
      </trkpt>
      <trkpt lat="43.35576" lon="-1.6093">
        <ele>27.05</ele>
        <time>2014-09-20T07:56:32Z</time>
      </trkpt>
      <trkpt lat="43.35577" lon="-1.6093">
        <ele>18.4</ele>
        <time>2014-09-20T07:56:36Z</time>
      </trkpt>
      <trkpt lat="43.35577" lon="-1.6093">
        <ele>27.53</ele>
        <time>2014-09-20T07:56:37Z</time>
      </trkpt>
      <trkpt lat="43.35578" lon="-1.6093">
        <ele>22.73</ele>
        <time>2014-09-20T07:56:38Z</time>
      </trkpt>
      <trkpt lat="43.35578" lon="-1.6093">
        <ele>27.05</ele>
        <time>2014-09-20T07:56:39Z</time>
      </trkpt>
      <trkpt lat="43.35578" lon="-1.6093">
        <ele>28.02</ele>
        <time>2014-09-20T07:56:44Z</time>
      </trkpt>
      <trkpt lat="43.35578" lon="-1.6093">
        <ele>24.17</ele>
        <time>2014-09-20T07:56:45Z</time>
      </trkpt>
      <trkpt lat="43.35578" lon="-1.6093">
        <ele>28.02</ele>
        <time>2014-09-20T07:56:46Z</time>
      </trkpt>
      <trkpt lat="43.35579" lon="-1.60931">
        <ele>24.65</ele>
        <time>2014-09-20T07:56:59Z</time>
      </trkpt>
      <trkpt lat="43.3558" lon="-1.60931">
        <ele>26.57</ele>
        <time>2014-09-20T07:57:02Z</time>
      </trkpt>
    </trkseg>
  </trk>
</gpx>